<?xml version="1.0" encoding="UTF-8" standalone="no" ?>
<gpx xmlns="http://www.topografix.com/GPX/1/1" xmlns:xsi="http://www.w3.org/2001/XMLSchema-instance" xsi:schemaLocation="http://www.topografix.com/GPX/1/1 http://www.topografix.com/GPX/1/1/gpx.xsd" version="1.1" creator="VisuGPX - https://www.visugpx.com">
  <metadata>
    <name>VOK EAUNES 11.5km Medley</name>
    <desc><![CDATA[
]]></desc>
  </metadata>
  <wpt lat="43.41882" lon="1.35284">
    <ele>206</ele>
    <name><![CDATA[Départ prieuré]]></name>
  </wpt>
  <wpt lat="43.42295" lon="1.32626">
    <ele>279</ele>
    <name><![CDATA[Chateau d'eau]]></name>
  </wpt>
  <wpt lat="43.43671" lon="1.32979">
    <ele>230</ele>
    <name><![CDATA[Panorama sur la vallée de Garonne]]></name>
  </wpt>
  <wpt lat="43.41889" lon="1.35273">
    <ele>206</ele>
    <name><![CDATA[retour parking]]></name>
  </wpt>
  <trk>
    <name><![CDATA[VOK EAUNES 11.5km Medley]]></name>
    <trkseg>
      <trkpt lat="43.41882" lon="1.35284">
        <ele>206</ele>
        <time>2020-01-16T14:50:48+01:00</time>
      </trkpt>
      <trkpt lat="43.41879" lon="1.35251">
        <ele>208</ele>
        <time>2020-01-16T14:51:07+01:00</time>
      </trkpt>
      <trkpt lat="43.41827" lon="1.3518">
        <ele>212</ele>
        <time>2020-01-16T14:52:05+01:00</time>
      </trkpt>
      <trkpt lat="43.41824" lon="1.35161">
        <ele>212</ele>
        <time>2020-01-16T14:52:17+01:00</time>
      </trkpt>
      <trkpt lat="43.41827" lon="1.35134">
        <ele>213</ele>
        <time>2020-01-16T14:52:33+01:00</time>
      </trkpt>
      <trkpt lat="43.4184" lon="1.35105">
        <ele>213</ele>
        <time>2020-01-16T14:52:52+01:00</time>
      </trkpt>
      <trkpt lat="43.41835" lon="1.34986">
        <ele>217</ele>
        <time>2020-01-16T14:54:02+01:00</time>
      </trkpt>
      <trkpt lat="43.41834" lon="1.34969">
        <ele>218</ele>
        <time>2020-01-16T14:54:12+01:00</time>
      </trkpt>
      <trkpt lat="43.41829" lon="1.34957">
        <ele>219</ele>
        <time>2020-01-16T14:54:20+01:00</time>
      </trkpt>
      <trkpt lat="43.41823" lon="1.34946">
        <ele>220</ele>
        <time>2020-01-16T14:54:28+01:00</time>
      </trkpt>
      <trkpt lat="43.41814" lon="1.34942">
        <ele>221</ele>
        <time>2020-01-16T14:54:36+01:00</time>
      </trkpt>
      <trkpt lat="43.41804" lon="1.34937">
        <ele>222</ele>
        <time>2020-01-16T14:54:44+01:00</time>
      </trkpt>
      <trkpt lat="43.41796" lon="1.34931">
        <ele>223</ele>
        <time>2020-01-16T14:54:53+01:00</time>
      </trkpt>
      <trkpt lat="43.41792" lon="1.3492">
        <ele>224</ele>
        <time>2020-01-16T14:55:00+01:00</time>
      </trkpt>
      <trkpt lat="43.41789" lon="1.34908">
        <ele>225</ele>
        <time>2020-01-16T14:55:07+01:00</time>
      </trkpt>
      <trkpt lat="43.41784" lon="1.34898">
        <ele>226</ele>
        <time>2020-01-16T14:55:15+01:00</time>
      </trkpt>
      <trkpt lat="43.41779" lon="1.34887">
        <ele>227</ele>
        <time>2020-01-16T14:55:22+01:00</time>
      </trkpt>
      <trkpt lat="43.41771" lon="1.34879">
        <ele>229</ele>
        <time>2020-01-16T14:55:30+01:00</time>
      </trkpt>
      <trkpt lat="43.41768" lon="1.34866">
        <ele>230</ele>
        <time>2020-01-16T14:55:38+01:00</time>
      </trkpt>
      <trkpt lat="43.41762" lon="1.34855">
        <ele>232</ele>
        <time>2020-01-16T14:55:45+01:00</time>
      </trkpt>
      <trkpt lat="43.41754" lon="1.34847">
        <ele>233</ele>
        <time>2020-01-16T14:55:53+01:00</time>
      </trkpt>
      <trkpt lat="43.4175" lon="1.34834">
        <ele>234</ele>
        <time>2020-01-16T14:56:01+01:00</time>
      </trkpt>
      <trkpt lat="43.41743" lon="1.34825">
        <ele>235</ele>
        <time>2020-01-16T14:56:09+01:00</time>
      </trkpt>
      <trkpt lat="43.41738" lon="1.34815">
        <ele>237</ele>
        <time>2020-01-16T14:56:16+01:00</time>
      </trkpt>
      <trkpt lat="43.41732" lon="1.34806">
        <ele>238</ele>
        <time>2020-01-16T14:56:24+01:00</time>
      </trkpt>
      <trkpt lat="43.41722" lon="1.348">
        <ele>239</ele>
        <time>2020-01-16T14:56:33+01:00</time>
      </trkpt>
      <trkpt lat="43.41715" lon="1.34793">
        <ele>240</ele>
        <time>2020-01-16T14:56:40+01:00</time>
      </trkpt>
      <trkpt lat="43.4171" lon="1.34781">
        <ele>242</ele>
        <time>2020-01-16T14:56:48+01:00</time>
      </trkpt>
      <trkpt lat="43.41704" lon="1.34771">
        <ele>243</ele>
        <time>2020-01-16T14:56:56+01:00</time>
      </trkpt>
      <trkpt lat="43.41698" lon="1.3476">
        <ele>244</ele>
        <time>2020-01-16T14:57:03+01:00</time>
      </trkpt>
      <trkpt lat="43.41695" lon="1.34749">
        <ele>245</ele>
        <time>2020-01-16T14:57:10+01:00</time>
      </trkpt>
      <trkpt lat="43.41693" lon="1.34735">
        <ele>246</ele>
        <time>2020-01-16T14:57:19+01:00</time>
      </trkpt>
      <trkpt lat="43.41687" lon="1.34723">
        <ele>248</ele>
        <time>2020-01-16T14:57:27+01:00</time>
      </trkpt>
      <trkpt lat="43.41673" lon="1.34706">
        <ele>250</ele>
        <time>2020-01-16T14:57:42+01:00</time>
      </trkpt>
      <trkpt lat="43.41655" lon="1.34674">
        <ele>252</ele>
        <time>2020-01-16T14:58:06+01:00</time>
      </trkpt>
      <trkpt lat="43.4163" lon="1.34636">
        <ele>255</ele>
        <time>2020-01-16T14:58:36+01:00</time>
      </trkpt>
      <trkpt lat="43.41617" lon="1.34615">
        <ele>256</ele>
        <time>2020-01-16T14:58:51+01:00</time>
      </trkpt>
      <trkpt lat="43.41622" lon="1.34603">
        <ele>256</ele>
        <time>2020-01-16T14:58:59+01:00</time>
      </trkpt>
      <trkpt lat="43.41623" lon="1.3459">
        <ele>256</ele>
        <time>2020-01-16T14:59:07+01:00</time>
      </trkpt>
      <trkpt lat="43.41626" lon="1.34577">
        <ele>255</ele>
        <time>2020-01-16T14:59:15+01:00</time>
      </trkpt>
      <trkpt lat="43.41634" lon="1.34571">
        <ele>254</ele>
        <time>2020-01-16T14:59:22+01:00</time>
      </trkpt>
      <trkpt lat="43.4164" lon="1.34561">
        <ele>253</ele>
        <time>2020-01-16T14:59:30+01:00</time>
      </trkpt>
      <trkpt lat="43.41644" lon="1.34549">
        <ele>252</ele>
        <time>2020-01-16T14:59:38+01:00</time>
      </trkpt>
      <trkpt lat="43.41649" lon="1.34536">
        <ele>252</ele>
        <time>2020-01-16T14:59:47+01:00</time>
      </trkpt>
      <trkpt lat="43.41652" lon="1.34525">
        <ele>251</ele>
        <time>2020-01-16T14:59:54+01:00</time>
      </trkpt>
      <trkpt lat="43.41656" lon="1.34513">
        <ele>250</ele>
        <time>2020-01-16T15:00:02+01:00</time>
      </trkpt>
      <trkpt lat="43.41663" lon="1.34505">
        <ele>249</ele>
        <time>2020-01-16T15:00:09+01:00</time>
      </trkpt>
      <trkpt lat="43.41671" lon="1.34496">
        <ele>248</ele>
        <time>2020-01-16T15:00:17+01:00</time>
      </trkpt>
      <trkpt lat="43.4168" lon="1.34491">
        <ele>247</ele>
        <time>2020-01-16T15:00:25+01:00</time>
      </trkpt>
      <trkpt lat="43.41689" lon="1.34485">
        <ele>245</ele>
        <time>2020-01-16T15:00:33+01:00</time>
      </trkpt>
      <trkpt lat="43.41693" lon="1.34472">
        <ele>244</ele>
        <time>2020-01-16T15:00:42+01:00</time>
      </trkpt>
      <trkpt lat="43.41698" lon="1.34461">
        <ele>243</ele>
        <time>2020-01-16T15:00:50+01:00</time>
      </trkpt>
      <trkpt lat="43.41695" lon="1.34447">
        <ele>243</ele>
        <time>2020-01-16T15:00:58+01:00</time>
      </trkpt>
      <trkpt lat="43.41698" lon="1.34434">
        <ele>242</ele>
        <time>2020-01-16T15:01:06+01:00</time>
      </trkpt>
      <trkpt lat="43.41701" lon="1.34421">
        <ele>241</ele>
        <time>2020-01-16T15:01:14+01:00</time>
      </trkpt>
      <trkpt lat="43.41702" lon="1.34407">
        <ele>239</ele>
        <time>2020-01-16T15:01:22+01:00</time>
      </trkpt>
      <trkpt lat="43.41705" lon="1.34393">
        <ele>238</ele>
        <time>2020-01-16T15:01:31+01:00</time>
      </trkpt>
      <trkpt lat="43.41706" lon="1.3438">
        <ele>237</ele>
        <time>2020-01-16T15:01:39+01:00</time>
      </trkpt>
      <trkpt lat="43.41707" lon="1.34367">
        <ele>236</ele>
        <time>2020-01-16T15:01:47+01:00</time>
      </trkpt>
      <trkpt lat="43.41705" lon="1.34355">
        <ele>235</ele>
        <time>2020-01-16T15:01:54+01:00</time>
      </trkpt>
      <trkpt lat="43.41696" lon="1.34348">
        <ele>235</ele>
        <time>2020-01-16T15:02:02+01:00</time>
      </trkpt>
      <trkpt lat="43.41705" lon="1.3434">
        <ele>234</ele>
        <time>2020-01-16T15:02:10+01:00</time>
      </trkpt>
      <trkpt lat="43.41706" lon="1.34327">
        <ele>233</ele>
        <time>2020-01-16T15:02:18+01:00</time>
      </trkpt>
      <trkpt lat="43.41706" lon="1.34315">
        <ele>232</ele>
        <time>2020-01-16T15:02:25+01:00</time>
      </trkpt>
      <trkpt lat="43.41708" lon="1.34302">
        <ele>230</ele>
        <time>2020-01-16T15:02:33+01:00</time>
      </trkpt>
      <trkpt lat="43.41709" lon="1.34289">
        <ele>229</ele>
        <time>2020-01-16T15:02:40+01:00</time>
      </trkpt>
      <trkpt lat="43.41709" lon="1.34276">
        <ele>227</ele>
        <time>2020-01-16T15:02:48+01:00</time>
      </trkpt>
      <trkpt lat="43.41704" lon="1.34264">
        <ele>226</ele>
        <time>2020-01-16T15:02:57+01:00</time>
      </trkpt>
      <trkpt lat="43.417" lon="1.34252">
        <ele>225</ele>
        <time>2020-01-16T15:03:04+01:00</time>
      </trkpt>
      <trkpt lat="43.41694" lon="1.3424">
        <ele>225</ele>
        <time>2020-01-16T15:03:13+01:00</time>
      </trkpt>
      <trkpt lat="43.41692" lon="1.34227">
        <ele>224</ele>
        <time>2020-01-16T15:03:21+01:00</time>
      </trkpt>
      <trkpt lat="43.41687" lon="1.34214">
        <ele>223</ele>
        <time>2020-01-16T15:03:29+01:00</time>
      </trkpt>
      <trkpt lat="43.41678" lon="1.34208">
        <ele>223</ele>
        <time>2020-01-16T15:03:37+01:00</time>
      </trkpt>
      <trkpt lat="43.4167" lon="1.342">
        <ele>223</ele>
        <time>2020-01-16T15:03:45+01:00</time>
      </trkpt>
      <trkpt lat="43.4166" lon="1.34196">
        <ele>224</ele>
        <time>2020-01-16T15:03:53+01:00</time>
      </trkpt>
      <trkpt lat="43.41651" lon="1.34193">
        <ele>224</ele>
        <time>2020-01-16T15:04:00+01:00</time>
      </trkpt>
      <trkpt lat="43.41643" lon="1.34188">
        <ele>224</ele>
        <time>2020-01-16T15:04:08+01:00</time>
      </trkpt>
      <trkpt lat="43.41646" lon="1.34176">
        <ele>224</ele>
        <time>2020-01-16T15:04:15+01:00</time>
      </trkpt>
      <trkpt lat="43.41651" lon="1.34166">
        <ele>223</ele>
        <time>2020-01-16T15:04:22+01:00</time>
      </trkpt>
      <trkpt lat="43.41651" lon="1.34152">
        <ele>222</ele>
        <time>2020-01-16T15:04:30+01:00</time>
      </trkpt>
      <trkpt lat="43.41647" lon="1.34141">
        <ele>222</ele>
        <time>2020-01-16T15:04:38+01:00</time>
      </trkpt>
      <trkpt lat="43.4165" lon="1.34127">
        <ele>221</ele>
        <time>2020-01-16T15:04:46+01:00</time>
      </trkpt>
      <trkpt lat="43.41659" lon="1.34123">
        <ele>221</ele>
        <time>2020-01-16T15:04:54+01:00</time>
      </trkpt>
      <trkpt lat="43.41661" lon="1.34111">
        <ele>220</ele>
        <time>2020-01-16T15:05:02+01:00</time>
      </trkpt>
      <trkpt lat="43.41653" lon="1.34104">
        <ele>220</ele>
        <time>2020-01-16T15:05:10+01:00</time>
      </trkpt>
      <trkpt lat="43.41646" lon="1.34096">
        <ele>220</ele>
        <time>2020-01-16T15:05:17+01:00</time>
      </trkpt>
      <trkpt lat="43.41638" lon="1.34086">
        <ele>220</ele>
        <time>2020-01-16T15:05:26+01:00</time>
      </trkpt>
      <trkpt lat="43.4163" lon="1.34076">
        <ele>221</ele>
        <time>2020-01-16T15:05:34+01:00</time>
      </trkpt>
      <trkpt lat="43.4162" lon="1.34069">
        <ele>222</ele>
        <time>2020-01-16T15:05:43+01:00</time>
      </trkpt>
      <trkpt lat="43.41613" lon="1.34062">
        <ele>222</ele>
        <time>2020-01-16T15:05:51+01:00</time>
      </trkpt>
      <trkpt lat="43.41605" lon="1.34055">
        <ele>223</ele>
        <time>2020-01-16T15:05:59+01:00</time>
      </trkpt>
      <trkpt lat="43.41597" lon="1.34045">
        <ele>223</ele>
        <time>2020-01-16T15:06:06+01:00</time>
      </trkpt>
      <trkpt lat="43.4159" lon="1.34037">
        <ele>223</ele>
        <time>2020-01-16T15:06:14+01:00</time>
      </trkpt>
      <trkpt lat="43.41581" lon="1.3403">
        <ele>223</ele>
        <time>2020-01-16T15:06:23+01:00</time>
      </trkpt>
      <trkpt lat="43.41575" lon="1.34019">
        <ele>224</ele>
        <time>2020-01-16T15:06:31+01:00</time>
      </trkpt>
      <trkpt lat="43.41568" lon="1.34011">
        <ele>224</ele>
        <time>2020-01-16T15:06:39+01:00</time>
      </trkpt>
      <trkpt lat="43.41562" lon="1.34">
        <ele>225</ele>
        <time>2020-01-16T15:06:47+01:00</time>
      </trkpt>
      <trkpt lat="43.41557" lon="1.3399">
        <ele>225</ele>
        <time>2020-01-16T15:06:55+01:00</time>
      </trkpt>
      <trkpt lat="43.41551" lon="1.3398">
        <ele>225</ele>
        <time>2020-01-16T15:07:02+01:00</time>
      </trkpt>
      <trkpt lat="43.41547" lon="1.33968">
        <ele>225</ele>
        <time>2020-01-16T15:07:10+01:00</time>
      </trkpt>
      <trkpt lat="43.41541" lon="1.33957">
        <ele>225</ele>
        <time>2020-01-16T15:07:19+01:00</time>
      </trkpt>
      <trkpt lat="43.41535" lon="1.33944">
        <ele>225</ele>
        <time>2020-01-16T15:07:27+01:00</time>
      </trkpt>
      <trkpt lat="43.4153" lon="1.33934">
        <ele>225</ele>
        <time>2020-01-16T15:07:35+01:00</time>
      </trkpt>
      <trkpt lat="43.41521" lon="1.33925">
        <ele>225</ele>
        <time>2020-01-16T15:07:44+01:00</time>
      </trkpt>
      <trkpt lat="43.41515" lon="1.33915">
        <ele>225</ele>
        <time>2020-01-16T15:07:51+01:00</time>
      </trkpt>
      <trkpt lat="43.41512" lon="1.33903">
        <ele>225</ele>
        <time>2020-01-16T15:07:59+01:00</time>
      </trkpt>
      <trkpt lat="43.41507" lon="1.33891">
        <ele>225</ele>
        <time>2020-01-16T15:08:07+01:00</time>
      </trkpt>
      <trkpt lat="43.41503" lon="1.33878">
        <ele>225</ele>
        <time>2020-01-16T15:08:15+01:00</time>
      </trkpt>
      <trkpt lat="43.41498" lon="1.33865">
        <ele>225</ele>
        <time>2020-01-16T15:08:24+01:00</time>
      </trkpt>
      <trkpt lat="43.4149" lon="1.33856">
        <ele>226</ele>
        <time>2020-01-16T15:08:32+01:00</time>
      </trkpt>
      <trkpt lat="43.41484" lon="1.33846">
        <ele>225</ele>
        <time>2020-01-16T15:08:40+01:00</time>
      </trkpt>
      <trkpt lat="43.41479" lon="1.33835">
        <ele>225</ele>
        <time>2020-01-16T15:08:47+01:00</time>
      </trkpt>
      <trkpt lat="43.4147" lon="1.33829">
        <ele>225</ele>
        <time>2020-01-16T15:08:56+01:00</time>
      </trkpt>
      <trkpt lat="43.41462" lon="1.33822">
        <ele>226</ele>
        <time>2020-01-16T15:09:03+01:00</time>
      </trkpt>
      <trkpt lat="43.41453" lon="1.33813">
        <ele>226</ele>
        <time>2020-01-16T15:09:12+01:00</time>
      </trkpt>
      <trkpt lat="43.41445" lon="1.33807">
        <ele>226</ele>
        <time>2020-01-16T15:09:20+01:00</time>
      </trkpt>
      <trkpt lat="43.41437" lon="1.33799">
        <ele>227</ele>
        <time>2020-01-16T15:09:28+01:00</time>
      </trkpt>
      <trkpt lat="43.41427" lon="1.33795">
        <ele>228</ele>
        <time>2020-01-16T15:09:36+01:00</time>
      </trkpt>
      <trkpt lat="43.41419" lon="1.33789">
        <ele>228</ele>
        <time>2020-01-16T15:09:43+01:00</time>
      </trkpt>
      <trkpt lat="43.41411" lon="1.33783">
        <ele>228</ele>
        <time>2020-01-16T15:09:51+01:00</time>
      </trkpt>
      <trkpt lat="43.41404" lon="1.33772">
        <ele>228</ele>
        <time>2020-01-16T15:09:59+01:00</time>
      </trkpt>
      <trkpt lat="43.41398" lon="1.33763">
        <ele>228</ele>
        <time>2020-01-16T15:10:07+01:00</time>
      </trkpt>
      <trkpt lat="43.41391" lon="1.33753">
        <ele>228</ele>
        <time>2020-01-16T15:10:16+01:00</time>
      </trkpt>
      <trkpt lat="43.41393" lon="1.33741">
        <ele>228</ele>
        <time>2020-01-16T15:10:24+01:00</time>
      </trkpt>
      <trkpt lat="43.41397" lon="1.33729">
        <ele>227</ele>
        <time>2020-01-16T15:10:31+01:00</time>
      </trkpt>
      <trkpt lat="43.41401" lon="1.33718">
        <ele>227</ele>
        <time>2020-01-16T15:10:39+01:00</time>
      </trkpt>
      <trkpt lat="43.41406" lon="1.33707">
        <ele>228</ele>
        <time>2020-01-16T15:10:47+01:00</time>
      </trkpt>
      <trkpt lat="43.41413" lon="1.33699">
        <ele>228</ele>
        <time>2020-01-16T15:10:55+01:00</time>
      </trkpt>
      <trkpt lat="43.4142" lon="1.33691">
        <ele>228</ele>
        <time>2020-01-16T15:11:03+01:00</time>
      </trkpt>
      <trkpt lat="43.41427" lon="1.33682">
        <ele>229</ele>
        <time>2020-01-16T15:11:10+01:00</time>
      </trkpt>
      <trkpt lat="43.41436" lon="1.33687">
        <ele>229</ele>
        <time>2020-01-16T15:11:18+01:00</time>
      </trkpt>
      <trkpt lat="43.41445" lon="1.33692">
        <ele>228</ele>
        <time>2020-01-16T15:11:26+01:00</time>
      </trkpt>
      <trkpt lat="43.41454" lon="1.33695">
        <ele>228</ele>
        <time>2020-01-16T15:11:34+01:00</time>
      </trkpt>
      <trkpt lat="43.41463" lon="1.33699">
        <ele>227</ele>
        <time>2020-01-16T15:11:42+01:00</time>
      </trkpt>
      <trkpt lat="43.41473" lon="1.33701">
        <ele>227</ele>
        <time>2020-01-16T15:11:50+01:00</time>
      </trkpt>
      <trkpt lat="43.41482" lon="1.33705">
        <ele>226</ele>
        <time>2020-01-16T15:11:58+01:00</time>
      </trkpt>
      <trkpt lat="43.41489" lon="1.33697">
        <ele>226</ele>
        <time>2020-01-16T15:12:05+01:00</time>
      </trkpt>
      <trkpt lat="43.4149" lon="1.33683">
        <ele>226</ele>
        <time>2020-01-16T15:12:14+01:00</time>
      </trkpt>
      <trkpt lat="43.41492" lon="1.3367">
        <ele>226</ele>
        <time>2020-01-16T15:12:21+01:00</time>
      </trkpt>
      <trkpt lat="43.41495" lon="1.33657">
        <ele>226</ele>
        <time>2020-01-16T15:12:29+01:00</time>
      </trkpt>
      <trkpt lat="43.41495" lon="1.33644">
        <ele>226</ele>
        <time>2020-01-16T15:12:37+01:00</time>
      </trkpt>
      <trkpt lat="43.41497" lon="1.33631">
        <ele>227</ele>
        <time>2020-01-16T15:12:45+01:00</time>
      </trkpt>
      <trkpt lat="43.41499" lon="1.33617">
        <ele>227</ele>
        <time>2020-01-16T15:12:53+01:00</time>
      </trkpt>
      <trkpt lat="43.41499" lon="1.33604">
        <ele>227</ele>
        <time>2020-01-16T15:13:01+01:00</time>
      </trkpt>
      <trkpt lat="43.415" lon="1.33591">
        <ele>227</ele>
        <time>2020-01-16T15:13:09+01:00</time>
      </trkpt>
      <trkpt lat="43.41501" lon="1.33578">
        <ele>227</ele>
        <time>2020-01-16T15:13:17+01:00</time>
      </trkpt>
      <trkpt lat="43.41502" lon="1.33564">
        <ele>228</ele>
        <time>2020-01-16T15:13:25+01:00</time>
      </trkpt>
      <trkpt lat="43.41504" lon="1.33551">
        <ele>228</ele>
        <time>2020-01-16T15:13:32+01:00</time>
      </trkpt>
      <trkpt lat="43.41506" lon="1.33539">
        <ele>229</ele>
        <time>2020-01-16T15:13:40+01:00</time>
      </trkpt>
      <trkpt lat="43.41506" lon="1.33526">
        <ele>229</ele>
        <time>2020-01-16T15:13:47+01:00</time>
      </trkpt>
      <trkpt lat="43.41508" lon="1.33513">
        <ele>230</ele>
        <time>2020-01-16T15:13:55+01:00</time>
      </trkpt>
      <trkpt lat="43.41508" lon="1.33499">
        <ele>230</ele>
        <time>2020-01-16T15:14:03+01:00</time>
      </trkpt>
      <trkpt lat="43.41508" lon="1.33485">
        <ele>230</ele>
        <time>2020-01-16T15:14:11+01:00</time>
      </trkpt>
      <trkpt lat="43.4151" lon="1.33472">
        <ele>231</ele>
        <time>2020-01-16T15:14:19+01:00</time>
      </trkpt>
      <trkpt lat="43.41514" lon="1.33459">
        <ele>231</ele>
        <time>2020-01-16T15:14:27+01:00</time>
      </trkpt>
      <trkpt lat="43.41517" lon="1.33447">
        <ele>231</ele>
        <time>2020-01-16T15:14:35+01:00</time>
      </trkpt>
      <trkpt lat="43.41518" lon="1.33434">
        <ele>232</ele>
        <time>2020-01-16T15:14:43+01:00</time>
      </trkpt>
      <trkpt lat="43.41519" lon="1.33421">
        <ele>232</ele>
        <time>2020-01-16T15:14:50+01:00</time>
      </trkpt>
      <trkpt lat="43.41519" lon="1.33408">
        <ele>233</ele>
        <time>2020-01-16T15:14:58+01:00</time>
      </trkpt>
      <trkpt lat="43.41522" lon="1.33396">
        <ele>233</ele>
        <time>2020-01-16T15:15:05+01:00</time>
      </trkpt>
      <trkpt lat="43.41525" lon="1.33384">
        <ele>234</ele>
        <time>2020-01-16T15:15:13+01:00</time>
      </trkpt>
      <trkpt lat="43.41527" lon="1.33372">
        <ele>234</ele>
        <time>2020-01-16T15:15:20+01:00</time>
      </trkpt>
      <trkpt lat="43.41528" lon="1.33357">
        <ele>234</ele>
        <time>2020-01-16T15:15:29+01:00</time>
      </trkpt>
      <trkpt lat="43.4153" lon="1.33343">
        <ele>235</ele>
        <time>2020-01-16T15:15:37+01:00</time>
      </trkpt>
      <trkpt lat="43.41532" lon="1.3333">
        <ele>236</ele>
        <time>2020-01-16T15:15:45+01:00</time>
      </trkpt>
      <trkpt lat="43.41532" lon="1.33316">
        <ele>236</ele>
        <time>2020-01-16T15:15:53+01:00</time>
      </trkpt>
      <trkpt lat="43.41534" lon="1.33303">
        <ele>237</ele>
        <time>2020-01-16T15:16:01+01:00</time>
      </trkpt>
      <trkpt lat="43.41533" lon="1.33289">
        <ele>237</ele>
        <time>2020-01-16T15:16:09+01:00</time>
      </trkpt>
      <trkpt lat="43.41533" lon="1.33276">
        <ele>237</ele>
        <time>2020-01-16T15:16:16+01:00</time>
      </trkpt>
      <trkpt lat="43.41534" lon="1.33263">
        <ele>237</ele>
        <time>2020-01-16T15:16:24+01:00</time>
      </trkpt>
      <trkpt lat="43.41533" lon="1.3325">
        <ele>238</ele>
        <time>2020-01-16T15:16:32+01:00</time>
      </trkpt>
      <trkpt lat="43.41535" lon="1.33236">
        <ele>238</ele>
        <time>2020-01-16T15:16:40+01:00</time>
      </trkpt>
      <trkpt lat="43.41534" lon="1.33223">
        <ele>238</ele>
        <time>2020-01-16T15:16:48+01:00</time>
      </trkpt>
      <trkpt lat="43.41533" lon="1.33211">
        <ele>238</ele>
        <time>2020-01-16T15:16:55+01:00</time>
      </trkpt>
      <trkpt lat="43.41534" lon="1.33198">
        <ele>239</ele>
        <time>2020-01-16T15:17:03+01:00</time>
      </trkpt>
      <trkpt lat="43.41533" lon="1.33184">
        <ele>239</ele>
        <time>2020-01-16T15:17:11+01:00</time>
      </trkpt>
      <trkpt lat="43.41534" lon="1.3317">
        <ele>239</ele>
        <time>2020-01-16T15:17:19+01:00</time>
      </trkpt>
      <trkpt lat="43.41535" lon="1.33156">
        <ele>239</ele>
        <time>2020-01-16T15:17:28+01:00</time>
      </trkpt>
      <trkpt lat="43.41535" lon="1.33143">
        <ele>240</ele>
        <time>2020-01-16T15:17:35+01:00</time>
      </trkpt>
      <trkpt lat="43.41535" lon="1.3313">
        <ele>240</ele>
        <time>2020-01-16T15:17:43+01:00</time>
      </trkpt>
      <trkpt lat="43.41539" lon="1.33064">
        <ele>241</ele>
        <time>2020-01-16T15:18:21+01:00</time>
      </trkpt>
      <trkpt lat="43.41538" lon="1.33">
        <ele>242</ele>
        <time>2020-01-16T15:18:59+01:00</time>
      </trkpt>
      <trkpt lat="43.41539" lon="1.32926">
        <ele>243</ele>
        <time>2020-01-16T15:19:42+01:00</time>
      </trkpt>
      <trkpt lat="43.4154" lon="1.32843">
        <ele>245</ele>
        <time>2020-01-16T15:20:30+01:00</time>
      </trkpt>
      <trkpt lat="43.4154" lon="1.32785">
        <ele>246</ele>
        <time>2020-01-16T15:21:04+01:00</time>
      </trkpt>
      <trkpt lat="43.41541" lon="1.3276">
        <ele>247</ele>
        <time>2020-01-16T15:21:19+01:00</time>
      </trkpt>
      <trkpt lat="43.41527" lon="1.32645">
        <ele>249</ele>
        <time>2020-01-16T15:22:26+01:00</time>
      </trkpt>
      <trkpt lat="43.41526" lon="1.32637">
        <ele>249</ele>
        <time>2020-01-16T15:22:31+01:00</time>
      </trkpt>
      <trkpt lat="43.41543" lon="1.32526">
        <ele>252</ele>
        <time>2020-01-16T15:23:38+01:00</time>
      </trkpt>
      <trkpt lat="43.41547" lon="1.32488">
        <ele>253</ele>
        <time>2020-01-16T15:24:00+01:00</time>
      </trkpt>
      <trkpt lat="43.41552" lon="1.32445">
        <ele>255</ele>
        <time>2020-01-16T15:24:26+01:00</time>
      </trkpt>
      <trkpt lat="43.41561" lon="1.32356">
        <ele>257</ele>
        <time>2020-01-16T15:25:18+01:00</time>
      </trkpt>
      <trkpt lat="43.4157" lon="1.32353">
        <ele>256</ele>
        <time>2020-01-16T15:25:25+01:00</time>
      </trkpt>
      <trkpt lat="43.41578" lon="1.32348">
        <ele>255</ele>
        <time>2020-01-16T15:25:32+01:00</time>
      </trkpt>
      <trkpt lat="43.41587" lon="1.3234">
        <ele>254</ele>
        <time>2020-01-16T15:25:40+01:00</time>
      </trkpt>
      <trkpt lat="43.41595" lon="1.32332">
        <ele>254</ele>
        <time>2020-01-16T15:25:48+01:00</time>
      </trkpt>
      <trkpt lat="43.41604" lon="1.32329">
        <ele>253</ele>
        <time>2020-01-16T15:25:56+01:00</time>
      </trkpt>
      <trkpt lat="43.41613" lon="1.32328">
        <ele>252</ele>
        <time>2020-01-16T15:26:03+01:00</time>
      </trkpt>
      <trkpt lat="43.41623" lon="1.32327">
        <ele>251</ele>
        <time>2020-01-16T15:26:11+01:00</time>
      </trkpt>
      <trkpt lat="43.41631" lon="1.32334">
        <ele>251</ele>
        <time>2020-01-16T15:26:19+01:00</time>
      </trkpt>
      <trkpt lat="43.4164" lon="1.32337">
        <ele>250</ele>
        <time>2020-01-16T15:26:27+01:00</time>
      </trkpt>
      <trkpt lat="43.4165" lon="1.32339">
        <ele>250</ele>
        <time>2020-01-16T15:26:35+01:00</time>
      </trkpt>
      <trkpt lat="43.4166" lon="1.32341">
        <ele>251</ele>
        <time>2020-01-16T15:26:43+01:00</time>
      </trkpt>
      <trkpt lat="43.4167" lon="1.32342">
        <ele>251</ele>
        <time>2020-01-16T15:26:51+01:00</time>
      </trkpt>
      <trkpt lat="43.4168" lon="1.32343">
        <ele>252</ele>
        <time>2020-01-16T15:26:58+01:00</time>
      </trkpt>
      <trkpt lat="43.41689" lon="1.32344">
        <ele>253</ele>
        <time>2020-01-16T15:27:06+01:00</time>
      </trkpt>
      <trkpt lat="43.41698" lon="1.32346">
        <ele>254</ele>
        <time>2020-01-16T15:27:13+01:00</time>
      </trkpt>
      <trkpt lat="43.41707" lon="1.32352">
        <ele>255</ele>
        <time>2020-01-16T15:27:21+01:00</time>
      </trkpt>
      <trkpt lat="43.41716" lon="1.3235">
        <ele>257</ele>
        <time>2020-01-16T15:27:28+01:00</time>
      </trkpt>
      <trkpt lat="43.41725" lon="1.3235">
        <ele>258</ele>
        <time>2020-01-16T15:27:36+01:00</time>
      </trkpt>
      <trkpt lat="43.41736" lon="1.32353">
        <ele>259</ele>
        <time>2020-01-16T15:27:45+01:00</time>
      </trkpt>
      <trkpt lat="43.41746" lon="1.32354">
        <ele>260</ele>
        <time>2020-01-16T15:27:53+01:00</time>
      </trkpt>
      <trkpt lat="43.41755" lon="1.32358">
        <ele>261</ele>
        <time>2020-01-16T15:28:01+01:00</time>
      </trkpt>
      <trkpt lat="43.41763" lon="1.32365">
        <ele>261</ele>
        <time>2020-01-16T15:28:09+01:00</time>
      </trkpt>
      <trkpt lat="43.41773" lon="1.32368">
        <ele>262</ele>
        <time>2020-01-16T15:28:17+01:00</time>
      </trkpt>
      <trkpt lat="43.41781" lon="1.32374">
        <ele>263</ele>
        <time>2020-01-16T15:28:25+01:00</time>
      </trkpt>
      <trkpt lat="43.41791" lon="1.32372">
        <ele>264</ele>
        <time>2020-01-16T15:28:32+01:00</time>
      </trkpt>
      <trkpt lat="43.41801" lon="1.32373">
        <ele>266</ele>
        <time>2020-01-16T15:28:41+01:00</time>
      </trkpt>
      <trkpt lat="43.4181" lon="1.32373">
        <ele>267</ele>
        <time>2020-01-16T15:28:48+01:00</time>
      </trkpt>
      <trkpt lat="43.41819" lon="1.32377">
        <ele>269</ele>
        <time>2020-01-16T15:28:56+01:00</time>
      </trkpt>
      <trkpt lat="43.41828" lon="1.3238">
        <ele>271</ele>
        <time>2020-01-16T15:29:04+01:00</time>
      </trkpt>
      <trkpt lat="43.41837" lon="1.32388">
        <ele>273</ele>
        <time>2020-01-16T15:29:12+01:00</time>
      </trkpt>
      <trkpt lat="43.41846" lon="1.32391">
        <ele>275</ele>
        <time>2020-01-16T15:29:20+01:00</time>
      </trkpt>
      <trkpt lat="43.41856" lon="1.3239">
        <ele>277</ele>
        <time>2020-01-16T15:29:29+01:00</time>
      </trkpt>
      <trkpt lat="43.41865" lon="1.32393">
        <ele>279</ele>
        <time>2020-01-16T15:29:36+01:00</time>
      </trkpt>
      <trkpt lat="43.41876" lon="1.32389">
        <ele>280</ele>
        <time>2020-01-16T15:29:45+01:00</time>
      </trkpt>
      <trkpt lat="43.41885" lon="1.32385">
        <ele>281</ele>
        <time>2020-01-16T15:29:52+01:00</time>
      </trkpt>
      <trkpt lat="43.41895" lon="1.32382">
        <ele>283</ele>
        <time>2020-01-16T15:30:01+01:00</time>
      </trkpt>
      <trkpt lat="43.41905" lon="1.32381">
        <ele>284</ele>
        <time>2020-01-16T15:30:09+01:00</time>
      </trkpt>
      <trkpt lat="43.41914" lon="1.32383">
        <ele>285</ele>
        <time>2020-01-16T15:30:16+01:00</time>
      </trkpt>
      <trkpt lat="43.41924" lon="1.32386">
        <ele>285</ele>
        <time>2020-01-16T15:30:25+01:00</time>
      </trkpt>
      <trkpt lat="43.41932" lon="1.32394">
        <ele>285</ele>
        <time>2020-01-16T15:30:32+01:00</time>
      </trkpt>
      <trkpt lat="43.41942" lon="1.32397">
        <ele>285</ele>
        <time>2020-01-16T15:30:40+01:00</time>
      </trkpt>
      <trkpt lat="43.4195" lon="1.32402">
        <ele>285</ele>
        <time>2020-01-16T15:30:48+01:00</time>
      </trkpt>
      <trkpt lat="43.41958" lon="1.32409">
        <ele>285</ele>
        <time>2020-01-16T15:30:55+01:00</time>
      </trkpt>
      <trkpt lat="43.41967" lon="1.32412">
        <ele>285</ele>
        <time>2020-01-16T15:31:02+01:00</time>
      </trkpt>
      <trkpt lat="43.41977" lon="1.32417">
        <ele>285</ele>
        <time>2020-01-16T15:31:11+01:00</time>
      </trkpt>
      <trkpt lat="43.41987" lon="1.32421">
        <ele>285</ele>
        <time>2020-01-16T15:31:20+01:00</time>
      </trkpt>
      <trkpt lat="43.41997" lon="1.32424">
        <ele>285</ele>
        <time>2020-01-16T15:31:27+01:00</time>
      </trkpt>
      <trkpt lat="43.42008" lon="1.32429">
        <ele>285</ele>
        <time>2020-01-16T15:31:37+01:00</time>
      </trkpt>
      <trkpt lat="43.42018" lon="1.3243">
        <ele>285</ele>
        <time>2020-01-16T15:31:45+01:00</time>
      </trkpt>
      <trkpt lat="43.42027" lon="1.32435">
        <ele>285</ele>
        <time>2020-01-16T15:31:53+01:00</time>
      </trkpt>
      <trkpt lat="43.42035" lon="1.32442">
        <ele>285</ele>
        <time>2020-01-16T15:32:01+01:00</time>
      </trkpt>
      <trkpt lat="43.42043" lon="1.3245">
        <ele>285</ele>
        <time>2020-01-16T15:32:09+01:00</time>
      </trkpt>
      <trkpt lat="43.42052" lon="1.32456">
        <ele>285</ele>
        <time>2020-01-16T15:32:17+01:00</time>
      </trkpt>
      <trkpt lat="43.42061" lon="1.32457">
        <ele>284</ele>
        <time>2020-01-16T15:32:24+01:00</time>
      </trkpt>
      <trkpt lat="43.42071" lon="1.32461">
        <ele>284</ele>
        <time>2020-01-16T15:32:32+01:00</time>
      </trkpt>
      <trkpt lat="43.42082" lon="1.32466">
        <ele>284</ele>
        <time>2020-01-16T15:32:41+01:00</time>
      </trkpt>
      <trkpt lat="43.4209" lon="1.3247">
        <ele>284</ele>
        <time>2020-01-16T15:32:48+01:00</time>
      </trkpt>
      <trkpt lat="43.42099" lon="1.32475">
        <ele>283</ele>
        <time>2020-01-16T15:32:56+01:00</time>
      </trkpt>
      <trkpt lat="43.42108" lon="1.32479">
        <ele>283</ele>
        <time>2020-01-16T15:33:04+01:00</time>
      </trkpt>
      <trkpt lat="43.42116" lon="1.32483">
        <ele>283</ele>
        <time>2020-01-16T15:33:11+01:00</time>
      </trkpt>
      <trkpt lat="43.42125" lon="1.32488">
        <ele>282</ele>
        <time>2020-01-16T15:33:19+01:00</time>
      </trkpt>
      <trkpt lat="43.42135" lon="1.32493">
        <ele>282</ele>
        <time>2020-01-16T15:33:28+01:00</time>
      </trkpt>
      <trkpt lat="43.42145" lon="1.32496">
        <ele>282</ele>
        <time>2020-01-16T15:33:36+01:00</time>
      </trkpt>
      <trkpt lat="43.42153" lon="1.32502">
        <ele>281</ele>
        <time>2020-01-16T15:33:44+01:00</time>
      </trkpt>
      <trkpt lat="43.42162" lon="1.32505">
        <ele>281</ele>
        <time>2020-01-16T15:33:51+01:00</time>
      </trkpt>
      <trkpt lat="43.42171" lon="1.3251">
        <ele>281</ele>
        <time>2020-01-16T15:33:59+01:00</time>
      </trkpt>
      <trkpt lat="43.42181" lon="1.32514">
        <ele>281</ele>
        <time>2020-01-16T15:34:07+01:00</time>
      </trkpt>
      <trkpt lat="43.42189" lon="1.3252">
        <ele>281</ele>
        <time>2020-01-16T15:34:14+01:00</time>
      </trkpt>
      <trkpt lat="43.422" lon="1.32525">
        <ele>281</ele>
        <time>2020-01-16T15:34:24+01:00</time>
      </trkpt>
      <trkpt lat="43.42209" lon="1.32529">
        <ele>280</ele>
        <time>2020-01-16T15:34:31+01:00</time>
      </trkpt>
      <trkpt lat="43.42218" lon="1.32535">
        <ele>280</ele>
        <time>2020-01-16T15:34:39+01:00</time>
      </trkpt>
      <trkpt lat="43.42227" lon="1.32538">
        <ele>280</ele>
        <time>2020-01-16T15:34:47+01:00</time>
      </trkpt>
      <trkpt lat="43.42235" lon="1.32543">
        <ele>280</ele>
        <time>2020-01-16T15:34:55+01:00</time>
      </trkpt>
      <trkpt lat="43.42242" lon="1.32552">
        <ele>280</ele>
        <time>2020-01-16T15:35:03+01:00</time>
      </trkpt>
      <trkpt lat="43.42247" lon="1.32563">
        <ele>280</ele>
        <time>2020-01-16T15:35:11+01:00</time>
      </trkpt>
      <trkpt lat="43.42254" lon="1.32571">
        <ele>280</ele>
        <time>2020-01-16T15:35:19+01:00</time>
      </trkpt>
      <trkpt lat="43.4226" lon="1.32581">
        <ele>280</ele>
        <time>2020-01-16T15:35:26+01:00</time>
      </trkpt>
      <trkpt lat="43.42268" lon="1.32591">
        <ele>280</ele>
        <time>2020-01-16T15:35:35+01:00</time>
      </trkpt>
      <trkpt lat="43.42274" lon="1.32601">
        <ele>280</ele>
        <time>2020-01-16T15:35:42+01:00</time>
      </trkpt>
      <trkpt lat="43.4228" lon="1.32611">
        <ele>280</ele>
        <time>2020-01-16T15:35:50+01:00</time>
      </trkpt>
      <trkpt lat="43.42295" lon="1.32626">
        <ele>279</ele>
        <time>2020-01-16T15:36:05+01:00</time>
      </trkpt>
      <trkpt lat="43.42309" lon="1.32651">
        <ele>277</ele>
        <time>2020-01-16T15:36:24+01:00</time>
      </trkpt>
      <trkpt lat="43.42318" lon="1.32666">
        <ele>277</ele>
        <time>2020-01-16T15:36:35+01:00</time>
      </trkpt>
      <trkpt lat="43.42327" lon="1.32679">
        <ele>276</ele>
        <time>2020-01-16T15:36:45+01:00</time>
      </trkpt>
      <trkpt lat="43.4233" lon="1.32684">
        <ele>276</ele>
        <time>2020-01-16T15:36:49+01:00</time>
      </trkpt>
      <trkpt lat="43.42334" lon="1.32689">
        <ele>275</ele>
        <time>2020-01-16T15:36:53+01:00</time>
      </trkpt>
      <trkpt lat="43.42339" lon="1.32699">
        <ele>275</ele>
        <time>2020-01-16T15:37:00+01:00</time>
      </trkpt>
      <trkpt lat="43.42346" lon="1.3271">
        <ele>275</ele>
        <time>2020-01-16T15:37:09+01:00</time>
      </trkpt>
      <trkpt lat="43.42347" lon="1.32712">
        <ele>275</ele>
        <time>2020-01-16T15:37:10+01:00</time>
      </trkpt>
      <trkpt lat="43.42352" lon="1.32718">
        <ele>275</ele>
        <time>2020-01-16T15:37:15+01:00</time>
      </trkpt>
      <trkpt lat="43.42365" lon="1.32733">
        <ele>275</ele>
        <time>2020-01-16T15:37:30+01:00</time>
      </trkpt>
      <trkpt lat="43.42381" lon="1.32752">
        <ele>275</ele>
        <time>2020-01-16T15:37:46+01:00</time>
      </trkpt>
      <trkpt lat="43.42389" lon="1.32763">
        <ele>275</ele>
        <time>2020-01-16T15:37:55+01:00</time>
      </trkpt>
      <trkpt lat="43.42415" lon="1.32794">
        <ele>275</ele>
        <time>2020-01-16T15:38:22+01:00</time>
      </trkpt>
      <trkpt lat="43.42422" lon="1.32806">
        <ele>275</ele>
        <time>2020-01-16T15:38:31+01:00</time>
      </trkpt>
      <trkpt lat="43.42435" lon="1.32825">
        <ele>275</ele>
        <time>2020-01-16T15:38:47+01:00</time>
      </trkpt>
      <trkpt lat="43.42447" lon="1.32836">
        <ele>275</ele>
        <time>2020-01-16T15:38:59+01:00</time>
      </trkpt>
      <trkpt lat="43.4246" lon="1.32846">
        <ele>275</ele>
        <time>2020-01-16T15:39:10+01:00</time>
      </trkpt>
      <trkpt lat="43.42468" lon="1.32851">
        <ele>275</ele>
        <time>2020-01-16T15:39:17+01:00</time>
      </trkpt>
      <trkpt lat="43.42477" lon="1.32855">
        <ele>274</ele>
        <time>2020-01-16T15:39:25+01:00</time>
      </trkpt>
      <trkpt lat="43.42497" lon="1.32852">
        <ele>272</ele>
        <time>2020-01-16T15:39:41+01:00</time>
      </trkpt>
      <trkpt lat="43.42507" lon="1.32846">
        <ele>270</ele>
        <time>2020-01-16T15:39:50+01:00</time>
      </trkpt>
      <trkpt lat="43.42517" lon="1.32839">
        <ele>269</ele>
        <time>2020-01-16T15:39:59+01:00</time>
      </trkpt>
      <trkpt lat="43.42533" lon="1.3283">
        <ele>266</ele>
        <time>2020-01-16T15:40:13+01:00</time>
      </trkpt>
      <trkpt lat="43.42542" lon="1.32823">
        <ele>266</ele>
        <time>2020-01-16T15:40:21+01:00</time>
      </trkpt>
      <trkpt lat="43.42551" lon="1.32817">
        <ele>265</ele>
        <time>2020-01-16T15:40:29+01:00</time>
      </trkpt>
      <trkpt lat="43.4256" lon="1.32812">
        <ele>265</ele>
        <time>2020-01-16T15:40:37+01:00</time>
      </trkpt>
      <trkpt lat="43.42569" lon="1.32804">
        <ele>264</ele>
        <time>2020-01-16T15:40:45+01:00</time>
      </trkpt>
      <trkpt lat="43.42585" lon="1.32793">
        <ele>262</ele>
        <time>2020-01-16T15:41:00+01:00</time>
      </trkpt>
      <trkpt lat="43.42592" lon="1.32786">
        <ele>261</ele>
        <time>2020-01-16T15:41:07+01:00</time>
      </trkpt>
      <trkpt lat="43.42601" lon="1.32781">
        <ele>261</ele>
        <time>2020-01-16T15:41:14+01:00</time>
      </trkpt>
      <trkpt lat="43.4261" lon="1.32776">
        <ele>260</ele>
        <time>2020-01-16T15:41:22+01:00</time>
      </trkpt>
      <trkpt lat="43.42619" lon="1.32774">
        <ele>261</ele>
        <time>2020-01-16T15:41:30+01:00</time>
      </trkpt>
      <trkpt lat="43.42628" lon="1.32767">
        <ele>262</ele>
        <time>2020-01-16T15:41:38+01:00</time>
      </trkpt>
      <trkpt lat="43.42636" lon="1.3276">
        <ele>263</ele>
        <time>2020-01-16T15:41:46+01:00</time>
      </trkpt>
      <trkpt lat="43.42643" lon="1.32751">
        <ele>263</ele>
        <time>2020-01-16T15:41:54+01:00</time>
      </trkpt>
      <trkpt lat="43.42651" lon="1.32743">
        <ele>264</ele>
        <time>2020-01-16T15:42:01+01:00</time>
      </trkpt>
      <trkpt lat="43.42659" lon="1.32735">
        <ele>265</ele>
        <time>2020-01-16T15:42:10+01:00</time>
      </trkpt>
      <trkpt lat="43.42667" lon="1.32727">
        <ele>266</ele>
        <time>2020-01-16T15:42:17+01:00</time>
      </trkpt>
      <trkpt lat="43.42675" lon="1.32722">
        <ele>267</ele>
        <time>2020-01-16T15:42:25+01:00</time>
      </trkpt>
      <trkpt lat="43.42697" lon="1.32706">
        <ele>268</ele>
        <time>2020-01-16T15:42:45+01:00</time>
      </trkpt>
      <trkpt lat="43.42717" lon="1.32712">
        <ele>270</ele>
        <time>2020-01-16T15:43:01+01:00</time>
      </trkpt>
      <trkpt lat="43.42734" lon="1.32717">
        <ele>272</ele>
        <time>2020-01-16T15:43:15+01:00</time>
      </trkpt>
      <trkpt lat="43.42749" lon="1.32724">
        <ele>274</ele>
        <time>2020-01-16T15:43:28+01:00</time>
      </trkpt>
      <trkpt lat="43.42759" lon="1.32725">
        <ele>274</ele>
        <time>2020-01-16T15:43:36+01:00</time>
      </trkpt>
      <trkpt lat="43.42769" lon="1.32726">
        <ele>275</ele>
        <time>2020-01-16T15:43:44+01:00</time>
      </trkpt>
      <trkpt lat="43.42778" lon="1.32729">
        <ele>275</ele>
        <time>2020-01-16T15:43:51+01:00</time>
      </trkpt>
      <trkpt lat="43.42798" lon="1.32737">
        <ele>275</ele>
        <time>2020-01-16T15:44:07+01:00</time>
      </trkpt>
      <trkpt lat="43.42816" lon="1.32744">
        <ele>275</ele>
        <time>2020-01-16T15:44:23+01:00</time>
      </trkpt>
      <trkpt lat="43.42835" lon="1.32746">
        <ele>274</ele>
        <time>2020-01-16T15:44:38+01:00</time>
      </trkpt>
      <trkpt lat="43.42845" lon="1.32753">
        <ele>275</ele>
        <time>2020-01-16T15:44:47+01:00</time>
      </trkpt>
      <trkpt lat="43.42852" lon="1.32756">
        <ele>275</ele>
        <time>2020-01-16T15:44:52+01:00</time>
      </trkpt>
      <trkpt lat="43.42863" lon="1.32759">
        <ele>275</ele>
        <time>2020-01-16T15:45:01+01:00</time>
      </trkpt>
      <trkpt lat="43.42879" lon="1.32767">
        <ele>275</ele>
        <time>2020-01-16T15:45:15+01:00</time>
      </trkpt>
      <trkpt lat="43.42898" lon="1.32775">
        <ele>275</ele>
        <time>2020-01-16T15:45:31+01:00</time>
      </trkpt>
      <trkpt lat="43.42907" lon="1.32781">
        <ele>275</ele>
        <time>2020-01-16T15:45:39+01:00</time>
      </trkpt>
      <trkpt lat="43.42916" lon="1.32784">
        <ele>275</ele>
        <time>2020-01-16T15:45:47+01:00</time>
      </trkpt>
      <trkpt lat="43.4293" lon="1.32794">
        <ele>275</ele>
        <time>2020-01-16T15:45:59+01:00</time>
      </trkpt>
      <trkpt lat="43.42944" lon="1.32801">
        <ele>275</ele>
        <time>2020-01-16T15:46:11+01:00</time>
      </trkpt>
      <trkpt lat="43.42979" lon="1.32825">
        <ele>275</ele>
        <time>2020-01-16T15:46:43+01:00</time>
      </trkpt>
      <trkpt lat="43.42989" lon="1.32832">
        <ele>275</ele>
        <time>2020-01-16T15:46:51+01:00</time>
      </trkpt>
      <trkpt lat="43.42998" lon="1.32841">
        <ele>275</ele>
        <time>2020-01-16T15:47:00+01:00</time>
      </trkpt>
      <trkpt lat="43.43011" lon="1.32851">
        <ele>274</ele>
        <time>2020-01-16T15:47:12+01:00</time>
      </trkpt>
      <trkpt lat="43.43026" lon="1.32862">
        <ele>272</ele>
        <time>2020-01-16T15:47:26+01:00</time>
      </trkpt>
      <trkpt lat="43.43034" lon="1.32868">
        <ele>271</ele>
        <time>2020-01-16T15:47:33+01:00</time>
      </trkpt>
      <trkpt lat="43.43047" lon="1.32882">
        <ele>270</ele>
        <time>2020-01-16T15:47:46+01:00</time>
      </trkpt>
      <trkpt lat="43.43057" lon="1.32887">
        <ele>270</ele>
        <time>2020-01-16T15:47:55+01:00</time>
      </trkpt>
      <trkpt lat="43.43066" lon="1.32897">
        <ele>268</ele>
        <time>2020-01-16T15:48:04+01:00</time>
      </trkpt>
      <trkpt lat="43.43079" lon="1.32905">
        <ele>266</ele>
        <time>2020-01-16T15:48:15+01:00</time>
      </trkpt>
      <trkpt lat="43.43093" lon="1.32919">
        <ele>264</ele>
        <time>2020-01-16T15:48:30+01:00</time>
      </trkpt>
      <trkpt lat="43.43107" lon="1.32929">
        <ele>264</ele>
        <time>2020-01-16T15:48:42+01:00</time>
      </trkpt>
      <trkpt lat="43.43116" lon="1.32934">
        <ele>263</ele>
        <time>2020-01-16T15:48:50+01:00</time>
      </trkpt>
      <trkpt lat="43.43125" lon="1.32941">
        <ele>263</ele>
        <time>2020-01-16T15:48:58+01:00</time>
      </trkpt>
      <trkpt lat="43.43133" lon="1.32947">
        <ele>263</ele>
        <time>2020-01-16T15:49:06+01:00</time>
      </trkpt>
      <trkpt lat="43.43142" lon="1.32953">
        <ele>263</ele>
        <time>2020-01-16T15:49:13+01:00</time>
      </trkpt>
      <trkpt lat="43.4315" lon="1.32959">
        <ele>262</ele>
        <time>2020-01-16T15:49:21+01:00</time>
      </trkpt>
      <trkpt lat="43.4316" lon="1.32964">
        <ele>262</ele>
        <time>2020-01-16T15:49:30+01:00</time>
      </trkpt>
      <trkpt lat="43.43169" lon="1.3297">
        <ele>261</ele>
        <time>2020-01-16T15:49:38+01:00</time>
      </trkpt>
      <trkpt lat="43.43176" lon="1.32979">
        <ele>261</ele>
        <time>2020-01-16T15:49:46+01:00</time>
      </trkpt>
      <trkpt lat="43.43183" lon="1.32979">
        <ele>260</ele>
        <time>2020-01-16T15:49:51+01:00</time>
      </trkpt>
      <trkpt lat="43.43196" lon="1.32992">
        <ele>260</ele>
        <time>2020-01-16T15:50:04+01:00</time>
      </trkpt>
      <trkpt lat="43.43205" lon="1.32998">
        <ele>260</ele>
        <time>2020-01-16T15:50:12+01:00</time>
      </trkpt>
      <trkpt lat="43.43219" lon="1.33007">
        <ele>260</ele>
        <time>2020-01-16T15:50:25+01:00</time>
      </trkpt>
      <trkpt lat="43.43231" lon="1.33009">
        <ele>261</ele>
        <time>2020-01-16T15:50:34+01:00</time>
      </trkpt>
      <trkpt lat="43.4324" lon="1.33007">
        <ele>261</ele>
        <time>2020-01-16T15:50:41+01:00</time>
      </trkpt>
      <trkpt lat="43.43257" lon="1.32999">
        <ele>261</ele>
        <time>2020-01-16T15:50:55+01:00</time>
      </trkpt>
      <trkpt lat="43.43272" lon="1.32998">
        <ele>262</ele>
        <time>2020-01-16T15:51:08+01:00</time>
      </trkpt>
      <trkpt lat="43.43285" lon="1.32997">
        <ele>263</ele>
        <time>2020-01-16T15:51:18+01:00</time>
      </trkpt>
      <trkpt lat="43.43295" lon="1.32997">
        <ele>264</ele>
        <time>2020-01-16T15:51:26+01:00</time>
      </trkpt>
      <trkpt lat="43.43304" lon="1.32997">
        <ele>264</ele>
        <time>2020-01-16T15:51:33+01:00</time>
      </trkpt>
      <trkpt lat="43.43314" lon="1.32994">
        <ele>264</ele>
        <time>2020-01-16T15:51:42+01:00</time>
      </trkpt>
      <trkpt lat="43.43323" lon="1.32998">
        <ele>265</ele>
        <time>2020-01-16T15:51:49+01:00</time>
      </trkpt>
      <trkpt lat="43.43327" lon="1.33001">
        <ele>265</ele>
        <time>2020-01-16T15:51:53+01:00</time>
      </trkpt>
      <trkpt lat="43.43347" lon="1.33">
        <ele>265</ele>
        <time>2020-01-16T15:52:09+01:00</time>
      </trkpt>
      <trkpt lat="43.43371" lon="1.32985">
        <ele>265</ele>
        <time>2020-01-16T15:52:30+01:00</time>
      </trkpt>
      <trkpt lat="43.4338" lon="1.32971">
        <ele>265</ele>
        <time>2020-01-16T15:52:41+01:00</time>
      </trkpt>
      <trkpt lat="43.43392" lon="1.32958">
        <ele>264</ele>
        <time>2020-01-16T15:52:53+01:00</time>
      </trkpt>
      <trkpt lat="43.434" lon="1.32954">
        <ele>264</ele>
        <time>2020-01-16T15:53:00+01:00</time>
      </trkpt>
      <trkpt lat="43.43409" lon="1.3295">
        <ele>263</ele>
        <time>2020-01-16T15:53:07+01:00</time>
      </trkpt>
      <trkpt lat="43.43416" lon="1.32942">
        <ele>261</ele>
        <time>2020-01-16T15:53:14+01:00</time>
      </trkpt>
      <trkpt lat="43.43426" lon="1.32942">
        <ele>260</ele>
        <time>2020-01-16T15:53:22+01:00</time>
      </trkpt>
      <trkpt lat="43.43444" lon="1.32943">
        <ele>258</ele>
        <time>2020-01-16T15:53:37+01:00</time>
      </trkpt>
      <trkpt lat="43.43453" lon="1.32942">
        <ele>256</ele>
        <time>2020-01-16T15:53:44+01:00</time>
      </trkpt>
      <trkpt lat="43.43462" lon="1.32945">
        <ele>256</ele>
        <time>2020-01-16T15:53:52+01:00</time>
      </trkpt>
      <trkpt lat="43.43472" lon="1.32947">
        <ele>255</ele>
        <time>2020-01-16T15:54:00+01:00</time>
      </trkpt>
      <trkpt lat="43.43482" lon="1.32949">
        <ele>254</ele>
        <time>2020-01-16T15:54:08+01:00</time>
      </trkpt>
      <trkpt lat="43.43491" lon="1.32951">
        <ele>253</ele>
        <time>2020-01-16T15:54:15+01:00</time>
      </trkpt>
      <trkpt lat="43.43536" lon="1.32959">
        <ele>249</ele>
        <time>2020-01-16T15:54:52+01:00</time>
      </trkpt>
      <trkpt lat="43.43545" lon="1.3296">
        <ele>248</ele>
        <time>2020-01-16T15:54:59+01:00</time>
      </trkpt>
      <trkpt lat="43.43554" lon="1.32962">
        <ele>247</ele>
        <time>2020-01-16T15:55:06+01:00</time>
      </trkpt>
      <trkpt lat="43.43578" lon="1.32958">
        <ele>244</ele>
        <time>2020-01-16T15:55:26+01:00</time>
      </trkpt>
      <trkpt lat="43.43671" lon="1.32979">
        <ele>230</ele>
        <time>2020-01-16T15:56:41+01:00</time>
      </trkpt>
      <trkpt lat="43.4368" lon="1.32982">
        <ele>229</ele>
        <time>2020-01-16T15:56:49+01:00</time>
      </trkpt>
      <trkpt lat="43.43688" lon="1.32984">
        <ele>228</ele>
        <time>2020-01-16T15:56:55+01:00</time>
      </trkpt>
      <trkpt lat="43.43697" lon="1.32974">
        <ele>226</ele>
        <time>2020-01-16T15:57:05+01:00</time>
      </trkpt>
      <trkpt lat="43.43712" lon="1.32958">
        <ele>224</ele>
        <time>2020-01-16T15:57:20+01:00</time>
      </trkpt>
      <trkpt lat="43.4372" lon="1.32957">
        <ele>223</ele>
        <time>2020-01-16T15:57:26+01:00</time>
      </trkpt>
      <trkpt lat="43.43748" lon="1.3296">
        <ele>223</ele>
        <time>2020-01-16T15:57:49+01:00</time>
      </trkpt>
      <trkpt lat="43.43768" lon="1.32962">
        <ele>223</ele>
        <time>2020-01-16T15:58:04+01:00</time>
      </trkpt>
      <trkpt lat="43.43773" lon="1.32965">
        <ele>223</ele>
        <time>2020-01-16T15:58:09+01:00</time>
      </trkpt>
      <trkpt lat="43.43783" lon="1.3298">
        <ele>225</ele>
        <time>2020-01-16T15:58:21+01:00</time>
      </trkpt>
      <trkpt lat="43.43792" lon="1.32982">
        <ele>225</ele>
        <time>2020-01-16T15:58:28+01:00</time>
      </trkpt>
      <trkpt lat="43.43802" lon="1.32982">
        <ele>224</ele>
        <time>2020-01-16T15:58:36+01:00</time>
      </trkpt>
      <trkpt lat="43.43859" lon="1.32976">
        <ele>223</ele>
        <time>2020-01-16T15:59:22+01:00</time>
      </trkpt>
      <trkpt lat="43.4387" lon="1.32976">
        <ele>224</ele>
        <time>2020-01-16T15:59:31+01:00</time>
      </trkpt>
      <trkpt lat="43.43896" lon="1.32979">
        <ele>224</ele>
        <time>2020-01-16T15:59:52+01:00</time>
      </trkpt>
      <trkpt lat="43.43912" lon="1.32959">
        <ele>221</ele>
        <time>2020-01-16T16:00:09+01:00</time>
      </trkpt>
      <trkpt lat="43.43924" lon="1.32957">
        <ele>222</ele>
        <time>2020-01-16T16:00:19+01:00</time>
      </trkpt>
      <trkpt lat="43.43932" lon="1.32962">
        <ele>223</ele>
        <time>2020-01-16T16:00:26+01:00</time>
      </trkpt>
      <trkpt lat="43.4395" lon="1.3297">
        <ele>224</ele>
        <time>2020-01-16T16:00:41+01:00</time>
      </trkpt>
      <trkpt lat="43.43968" lon="1.3298">
        <ele>225</ele>
        <time>2020-01-16T16:00:57+01:00</time>
      </trkpt>
      <trkpt lat="43.44002" lon="1.32995">
        <ele>227</ele>
        <time>2020-01-16T16:01:26+01:00</time>
      </trkpt>
      <trkpt lat="43.44015" lon="1.32999">
        <ele>229</ele>
        <time>2020-01-16T16:01:36+01:00</time>
      </trkpt>
      <trkpt lat="43.44026" lon="1.33002">
        <ele>230</ele>
        <time>2020-01-16T16:01:45+01:00</time>
      </trkpt>
      <trkpt lat="43.44045" lon="1.33004">
        <ele>230</ele>
        <time>2020-01-16T16:02:00+01:00</time>
      </trkpt>
      <trkpt lat="43.44055" lon="1.33005">
        <ele>230</ele>
        <time>2020-01-16T16:02:08+01:00</time>
      </trkpt>
      <trkpt lat="43.44065" lon="1.33007">
        <ele>230</ele>
        <time>2020-01-16T16:02:16+01:00</time>
      </trkpt>
      <trkpt lat="43.44073" lon="1.33008">
        <ele>230</ele>
        <time>2020-01-16T16:02:23+01:00</time>
      </trkpt>
      <trkpt lat="43.44083" lon="1.33014">
        <ele>229</ele>
        <time>2020-01-16T16:02:32+01:00</time>
      </trkpt>
      <trkpt lat="43.44101" lon="1.33018">
        <ele>229</ele>
        <time>2020-01-16T16:02:46+01:00</time>
      </trkpt>
      <trkpt lat="43.44111" lon="1.33021">
        <ele>229</ele>
        <time>2020-01-16T16:02:54+01:00</time>
      </trkpt>
      <trkpt lat="43.4412" lon="1.33025">
        <ele>230</ele>
        <time>2020-01-16T16:03:02+01:00</time>
      </trkpt>
      <trkpt lat="43.44129" lon="1.33027">
        <ele>230</ele>
        <time>2020-01-16T16:03:10+01:00</time>
      </trkpt>
      <trkpt lat="43.4414" lon="1.33032">
        <ele>230</ele>
        <time>2020-01-16T16:03:19+01:00</time>
      </trkpt>
      <trkpt lat="43.4415" lon="1.33034">
        <ele>230</ele>
        <time>2020-01-16T16:03:27+01:00</time>
      </trkpt>
      <trkpt lat="43.44158" lon="1.33036">
        <ele>230</ele>
        <time>2020-01-16T16:03:33+01:00</time>
      </trkpt>
      <trkpt lat="43.44167" lon="1.33039">
        <ele>230</ele>
        <time>2020-01-16T16:03:41+01:00</time>
      </trkpt>
      <trkpt lat="43.44186" lon="1.33043">
        <ele>231</ele>
        <time>2020-01-16T16:03:56+01:00</time>
      </trkpt>
      <trkpt lat="43.44195" lon="1.33044">
        <ele>232</ele>
        <time>2020-01-16T16:04:03+01:00</time>
      </trkpt>
      <trkpt lat="43.44208" lon="1.33044">
        <ele>232</ele>
        <time>2020-01-16T16:04:14+01:00</time>
      </trkpt>
      <trkpt lat="43.44226" lon="1.33045">
        <ele>232</ele>
        <time>2020-01-16T16:04:28+01:00</time>
      </trkpt>
      <trkpt lat="43.44246" lon="1.33048">
        <ele>234</ele>
        <time>2020-01-16T16:04:44+01:00</time>
      </trkpt>
      <trkpt lat="43.44286" lon="1.33044">
        <ele>235</ele>
        <time>2020-01-16T16:05:16+01:00</time>
      </trkpt>
      <trkpt lat="43.44298" lon="1.33044">
        <ele>237</ele>
        <time>2020-01-16T16:05:26+01:00</time>
      </trkpt>
      <trkpt lat="43.44303" lon="1.33048">
        <ele>237</ele>
        <time>2020-01-16T16:05:31+01:00</time>
      </trkpt>
      <trkpt lat="43.44313" lon="1.33051">
        <ele>237</ele>
        <time>2020-01-16T16:05:39+01:00</time>
      </trkpt>
      <trkpt lat="43.44323" lon="1.33055">
        <ele>238</ele>
        <time>2020-01-16T16:05:47+01:00</time>
      </trkpt>
      <trkpt lat="43.44346" lon="1.33054">
        <ele>237</ele>
        <time>2020-01-16T16:06:05+01:00</time>
      </trkpt>
      <trkpt lat="43.44362" lon="1.33056">
        <ele>235</ele>
        <time>2020-01-16T16:06:18+01:00</time>
      </trkpt>
      <trkpt lat="43.44366" lon="1.33079">
        <ele>235</ele>
        <time>2020-01-16T16:06:32+01:00</time>
      </trkpt>
      <trkpt lat="43.44367" lon="1.33096">
        <ele>235</ele>
        <time>2020-01-16T16:06:42+01:00</time>
      </trkpt>
      <trkpt lat="43.44371" lon="1.33147">
        <ele>232</ele>
        <time>2020-01-16T16:07:12+01:00</time>
      </trkpt>
      <trkpt lat="43.44369" lon="1.33161">
        <ele>231</ele>
        <time>2020-01-16T16:07:20+01:00</time>
      </trkpt>
      <trkpt lat="43.44365" lon="1.33201">
        <ele>230</ele>
        <time>2020-01-16T16:07:44+01:00</time>
      </trkpt>
      <trkpt lat="43.44362" lon="1.33227">
        <ele>229</ele>
        <time>2020-01-16T16:07:59+01:00</time>
      </trkpt>
      <trkpt lat="43.4436" lon="1.3324">
        <ele>228</ele>
        <time>2020-01-16T16:08:07+01:00</time>
      </trkpt>
      <trkpt lat="43.44356" lon="1.33237">
        <ele>228</ele>
        <time>2020-01-16T16:08:10+01:00</time>
      </trkpt>
      <trkpt lat="43.44347" lon="1.33235">
        <ele>229</ele>
        <time>2020-01-16T16:08:18+01:00</time>
      </trkpt>
      <trkpt lat="43.44335" lon="1.33229">
        <ele>229</ele>
        <time>2020-01-16T16:08:27+01:00</time>
      </trkpt>
      <trkpt lat="43.44328" lon="1.33225">
        <ele>229</ele>
        <time>2020-01-16T16:08:33+01:00</time>
      </trkpt>
      <trkpt lat="43.44318" lon="1.33221">
        <ele>230</ele>
        <time>2020-01-16T16:08:42+01:00</time>
      </trkpt>
      <trkpt lat="43.44231" lon="1.33202">
        <ele>230</ele>
        <time>2020-01-16T16:09:52+01:00</time>
      </trkpt>
      <trkpt lat="43.44219" lon="1.33199">
        <ele>230</ele>
        <time>2020-01-16T16:10:03+01:00</time>
      </trkpt>
      <trkpt lat="43.44202" lon="1.33193">
        <ele>229</ele>
        <time>2020-01-16T16:10:16+01:00</time>
      </trkpt>
      <trkpt lat="43.44164" lon="1.33397">
        <ele>223</ele>
        <time>2020-01-16T16:12:18+01:00</time>
      </trkpt>
      <trkpt lat="43.44144" lon="1.33504">
        <ele>219</ele>
        <time>2020-01-16T16:13:23+01:00</time>
      </trkpt>
      <trkpt lat="43.44124" lon="1.33612">
        <ele>216</ele>
        <time>2020-01-16T16:14:28+01:00</time>
      </trkpt>
      <trkpt lat="43.4411" lon="1.33689">
        <ele>214</ele>
        <time>2020-01-16T16:15:15+01:00</time>
      </trkpt>
      <trkpt lat="43.44095" lon="1.33681">
        <ele>214</ele>
        <time>2020-01-16T16:15:28+01:00</time>
      </trkpt>
      <trkpt lat="43.44088" lon="1.33673">
        <ele>214</ele>
        <time>2020-01-16T16:15:35+01:00</time>
      </trkpt>
      <trkpt lat="43.44059" lon="1.3366">
        <ele>212</ele>
        <time>2020-01-16T16:15:59+01:00</time>
      </trkpt>
      <trkpt lat="43.44013" lon="1.33641">
        <ele>209</ele>
        <time>2020-01-16T16:16:37+01:00</time>
      </trkpt>
      <trkpt lat="43.44003" lon="1.3364">
        <ele>209</ele>
        <time>2020-01-16T16:16:46+01:00</time>
      </trkpt>
      <trkpt lat="43.43994" lon="1.33637">
        <ele>209</ele>
        <time>2020-01-16T16:16:54+01:00</time>
      </trkpt>
      <trkpt lat="43.43969" lon="1.33625">
        <ele>209</ele>
        <time>2020-01-16T16:17:14+01:00</time>
      </trkpt>
      <trkpt lat="43.43959" lon="1.33623">
        <ele>209</ele>
        <time>2020-01-16T16:17:23+01:00</time>
      </trkpt>
      <trkpt lat="43.43949" lon="1.3362">
        <ele>209</ele>
        <time>2020-01-16T16:17:33+01:00</time>
      </trkpt>
      <trkpt lat="43.43939" lon="1.33616">
        <ele>209</ele>
        <time>2020-01-16T16:17:41+01:00</time>
      </trkpt>
      <trkpt lat="43.43929" lon="1.33613">
        <ele>209</ele>
        <time>2020-01-16T16:17:49+01:00</time>
      </trkpt>
      <trkpt lat="43.43919" lon="1.33611">
        <ele>210</ele>
        <time>2020-01-16T16:17:57+01:00</time>
      </trkpt>
      <trkpt lat="43.4391" lon="1.33607">
        <ele>211</ele>
        <time>2020-01-16T16:18:05+01:00</time>
      </trkpt>
      <trkpt lat="43.43901" lon="1.33602">
        <ele>211</ele>
        <time>2020-01-16T16:18:13+01:00</time>
      </trkpt>
      <trkpt lat="43.43892" lon="1.33594">
        <ele>212</ele>
        <time>2020-01-16T16:18:21+01:00</time>
      </trkpt>
      <trkpt lat="43.43885" lon="1.33586">
        <ele>213</ele>
        <time>2020-01-16T16:18:29+01:00</time>
      </trkpt>
      <trkpt lat="43.43876" lon="1.3358">
        <ele>214</ele>
        <time>2020-01-16T16:18:37+01:00</time>
      </trkpt>
      <trkpt lat="43.43872" lon="1.33568">
        <ele>215</ele>
        <time>2020-01-16T16:18:46+01:00</time>
      </trkpt>
      <trkpt lat="43.43867" lon="1.33557">
        <ele>216</ele>
        <time>2020-01-16T16:18:54+01:00</time>
      </trkpt>
      <trkpt lat="43.43861" lon="1.33546">
        <ele>216</ele>
        <time>2020-01-16T16:19:02+01:00</time>
      </trkpt>
      <trkpt lat="43.43855" lon="1.33535">
        <ele>217</ele>
        <time>2020-01-16T16:19:10+01:00</time>
      </trkpt>
      <trkpt lat="43.43849" lon="1.33524">
        <ele>218</ele>
        <time>2020-01-16T16:19:18+01:00</time>
      </trkpt>
      <trkpt lat="43.43843" lon="1.33514">
        <ele>219</ele>
        <time>2020-01-16T16:19:26+01:00</time>
      </trkpt>
      <trkpt lat="43.43836" lon="1.33505">
        <ele>220</ele>
        <time>2020-01-16T16:19:34+01:00</time>
      </trkpt>
      <trkpt lat="43.43832" lon="1.33493">
        <ele>220</ele>
        <time>2020-01-16T16:19:42+01:00</time>
      </trkpt>
      <trkpt lat="43.43826" lon="1.33484">
        <ele>222</ele>
        <time>2020-01-16T16:19:49+01:00</time>
      </trkpt>
      <trkpt lat="43.43817" lon="1.33475">
        <ele>223</ele>
        <time>2020-01-16T16:19:57+01:00</time>
      </trkpt>
      <trkpt lat="43.43808" lon="1.33466">
        <ele>224</ele>
        <time>2020-01-16T16:20:06+01:00</time>
      </trkpt>
      <trkpt lat="43.438" lon="1.33459">
        <ele>225</ele>
        <time>2020-01-16T16:20:14+01:00</time>
      </trkpt>
      <trkpt lat="43.43792" lon="1.33452">
        <ele>225</ele>
        <time>2020-01-16T16:20:23+01:00</time>
      </trkpt>
      <trkpt lat="43.43784" lon="1.33445">
        <ele>226</ele>
        <time>2020-01-16T16:20:30+01:00</time>
      </trkpt>
      <trkpt lat="43.43776" lon="1.33439">
        <ele>226</ele>
        <time>2020-01-16T16:20:38+01:00</time>
      </trkpt>
      <trkpt lat="43.43767" lon="1.33436">
        <ele>227</ele>
        <time>2020-01-16T16:20:45+01:00</time>
      </trkpt>
      <trkpt lat="43.43757" lon="1.33432">
        <ele>227</ele>
        <time>2020-01-16T16:20:53+01:00</time>
      </trkpt>
      <trkpt lat="43.43749" lon="1.33428">
        <ele>228</ele>
        <time>2020-01-16T16:21:01+01:00</time>
      </trkpt>
      <trkpt lat="43.4374" lon="1.33423">
        <ele>228</ele>
        <time>2020-01-16T16:21:08+01:00</time>
      </trkpt>
      <trkpt lat="43.43731" lon="1.3342">
        <ele>229</ele>
        <time>2020-01-16T16:21:16+01:00</time>
      </trkpt>
      <trkpt lat="43.43722" lon="1.33417">
        <ele>229</ele>
        <time>2020-01-16T16:21:23+01:00</time>
      </trkpt>
      <trkpt lat="43.4368" lon="1.33399">
        <ele>231</ele>
        <time>2020-01-16T16:21:58+01:00</time>
      </trkpt>
      <trkpt lat="43.43669" lon="1.33395">
        <ele>232</ele>
        <time>2020-01-16T16:22:08+01:00</time>
      </trkpt>
      <trkpt lat="43.43659" lon="1.33394">
        <ele>232</ele>
        <time>2020-01-16T16:22:15+01:00</time>
      </trkpt>
      <trkpt lat="43.43649" lon="1.33391">
        <ele>233</ele>
        <time>2020-01-16T16:22:23+01:00</time>
      </trkpt>
      <trkpt lat="43.43639" lon="1.3339">
        <ele>234</ele>
        <time>2020-01-16T16:22:31+01:00</time>
      </trkpt>
      <trkpt lat="43.43628" lon="1.3339">
        <ele>234</ele>
        <time>2020-01-16T16:22:40+01:00</time>
      </trkpt>
      <trkpt lat="43.43618" lon="1.33391">
        <ele>235</ele>
        <time>2020-01-16T16:22:48+01:00</time>
      </trkpt>
      <trkpt lat="43.43609" lon="1.3339">
        <ele>235</ele>
        <time>2020-01-16T16:22:56+01:00</time>
      </trkpt>
      <trkpt lat="43.43611" lon="1.33376">
        <ele>236</ele>
        <time>2020-01-16T16:23:04+01:00</time>
      </trkpt>
      <trkpt lat="43.43614" lon="1.33327">
        <ele>240</ele>
        <time>2020-01-16T16:23:33+01:00</time>
      </trkpt>
      <trkpt lat="43.4362" lon="1.33276">
        <ele>241</ele>
        <time>2020-01-16T16:24:03+01:00</time>
      </trkpt>
      <trkpt lat="43.43619" lon="1.3325">
        <ele>241</ele>
        <time>2020-01-16T16:24:18+01:00</time>
      </trkpt>
      <trkpt lat="43.43609" lon="1.33247">
        <ele>244</ele>
        <time>2020-01-16T16:24:26+01:00</time>
      </trkpt>
      <trkpt lat="43.43599" lon="1.33247">
        <ele>245</ele>
        <time>2020-01-16T16:24:34+01:00</time>
      </trkpt>
      <trkpt lat="43.4359" lon="1.33246">
        <ele>246</ele>
        <time>2020-01-16T16:24:41+01:00</time>
      </trkpt>
      <trkpt lat="43.4358" lon="1.33244">
        <ele>247</ele>
        <time>2020-01-16T16:24:49+01:00</time>
      </trkpt>
      <trkpt lat="43.4357" lon="1.33242">
        <ele>248</ele>
        <time>2020-01-16T16:24:57+01:00</time>
      </trkpt>
      <trkpt lat="43.43558" lon="1.33243">
        <ele>249</ele>
        <time>2020-01-16T16:25:07+01:00</time>
      </trkpt>
      <trkpt lat="43.43551" lon="1.3325">
        <ele>249</ele>
        <time>2020-01-16T16:25:14+01:00</time>
      </trkpt>
      <trkpt lat="43.43521" lon="1.33248">
        <ele>250</ele>
        <time>2020-01-16T16:25:38+01:00</time>
      </trkpt>
      <trkpt lat="43.43504" lon="1.33244">
        <ele>251</ele>
        <time>2020-01-16T16:25:51+01:00</time>
      </trkpt>
      <trkpt lat="43.43499" lon="1.33228">
        <ele>252</ele>
        <time>2020-01-16T16:26:02+01:00</time>
      </trkpt>
      <trkpt lat="43.43485" lon="1.33228">
        <ele>252</ele>
        <time>2020-01-16T16:26:13+01:00</time>
      </trkpt>
      <trkpt lat="43.4345" lon="1.33218">
        <ele>253</ele>
        <time>2020-01-16T16:26:42+01:00</time>
      </trkpt>
      <trkpt lat="43.43433" lon="1.33213">
        <ele>254</ele>
        <time>2020-01-16T16:26:56+01:00</time>
      </trkpt>
      <trkpt lat="43.43423" lon="1.33213">
        <ele>254</ele>
        <time>2020-01-16T16:27:04+01:00</time>
      </trkpt>
      <trkpt lat="43.4342" lon="1.33225">
        <ele>254</ele>
        <time>2020-01-16T16:27:11+01:00</time>
      </trkpt>
      <trkpt lat="43.43418" lon="1.33238">
        <ele>253</ele>
        <time>2020-01-16T16:27:19+01:00</time>
      </trkpt>
      <trkpt lat="43.43419" lon="1.33252">
        <ele>252</ele>
        <time>2020-01-16T16:27:27+01:00</time>
      </trkpt>
      <trkpt lat="43.43415" lon="1.33265">
        <ele>251</ele>
        <time>2020-01-16T16:27:36+01:00</time>
      </trkpt>
      <trkpt lat="43.43409" lon="1.33304">
        <ele>248</ele>
        <time>2020-01-16T16:27:59+01:00</time>
      </trkpt>
      <trkpt lat="43.43398" lon="1.33369">
        <ele>244</ele>
        <time>2020-01-16T16:28:38+01:00</time>
      </trkpt>
      <trkpt lat="43.43399" lon="1.33383">
        <ele>243</ele>
        <time>2020-01-16T16:28:46+01:00</time>
      </trkpt>
      <trkpt lat="43.43391" lon="1.33389">
        <ele>243</ele>
        <time>2020-01-16T16:28:53+01:00</time>
      </trkpt>
      <trkpt lat="43.43382" lon="1.33391">
        <ele>243</ele>
        <time>2020-01-16T16:29:01+01:00</time>
      </trkpt>
      <trkpt lat="43.43373" lon="1.33388">
        <ele>244</ele>
        <time>2020-01-16T16:29:08+01:00</time>
      </trkpt>
      <trkpt lat="43.43363" lon="1.3339">
        <ele>245</ele>
        <time>2020-01-16T16:29:17+01:00</time>
      </trkpt>
      <trkpt lat="43.43353" lon="1.33387">
        <ele>245</ele>
        <time>2020-01-16T16:29:25+01:00</time>
      </trkpt>
      <trkpt lat="43.43344" lon="1.33388">
        <ele>246</ele>
        <time>2020-01-16T16:29:32+01:00</time>
      </trkpt>
      <trkpt lat="43.43309" lon="1.33405">
        <ele>246</ele>
        <time>2020-01-16T16:30:02+01:00</time>
      </trkpt>
      <trkpt lat="43.4327" lon="1.3342">
        <ele>247</ele>
        <time>2020-01-16T16:30:34+01:00</time>
      </trkpt>
      <trkpt lat="43.43259" lon="1.33419">
        <ele>248</ele>
        <time>2020-01-16T16:30:43+01:00</time>
      </trkpt>
      <trkpt lat="43.43249" lon="1.33421">
        <ele>248</ele>
        <time>2020-01-16T16:30:52+01:00</time>
      </trkpt>
      <trkpt lat="43.43238" lon="1.33421">
        <ele>248</ele>
        <time>2020-01-16T16:31:00+01:00</time>
      </trkpt>
      <trkpt lat="43.43128" lon="1.33412">
        <ele>247</ele>
        <time>2020-01-16T16:32:28+01:00</time>
      </trkpt>
      <trkpt lat="43.43074" lon="1.33417">
        <ele>248</ele>
        <time>2020-01-16T16:33:12+01:00</time>
      </trkpt>
      <trkpt lat="43.43046" lon="1.33418">
        <ele>248</ele>
        <time>2020-01-16T16:33:34+01:00</time>
      </trkpt>
      <trkpt lat="43.43008" lon="1.33407">
        <ele>248</ele>
        <time>2020-01-16T16:34:06+01:00</time>
      </trkpt>
      <trkpt lat="43.42982" lon="1.334">
        <ele>249</ele>
        <time>2020-01-16T16:34:26+01:00</time>
      </trkpt>
      <trkpt lat="43.42967" lon="1.33395">
        <ele>249</ele>
        <time>2020-01-16T16:34:39+01:00</time>
      </trkpt>
      <trkpt lat="43.42949" lon="1.33387">
        <ele>249</ele>
        <time>2020-01-16T16:34:54+01:00</time>
      </trkpt>
      <trkpt lat="43.42939" lon="1.33384">
        <ele>249</ele>
        <time>2020-01-16T16:35:02+01:00</time>
      </trkpt>
      <trkpt lat="43.4293" lon="1.3338">
        <ele>249</ele>
        <time>2020-01-16T16:35:10+01:00</time>
      </trkpt>
      <trkpt lat="43.42896" lon="1.33372">
        <ele>250</ele>
        <time>2020-01-16T16:35:38+01:00</time>
      </trkpt>
      <trkpt lat="43.42882" lon="1.33415">
        <ele>248</ele>
        <time>2020-01-16T16:36:05+01:00</time>
      </trkpt>
      <trkpt lat="43.42877" lon="1.33431">
        <ele>247</ele>
        <time>2020-01-16T16:36:15+01:00</time>
      </trkpt>
      <trkpt lat="43.42866" lon="1.33469">
        <ele>245</ele>
        <time>2020-01-16T16:36:39+01:00</time>
      </trkpt>
      <trkpt lat="43.42857" lon="1.33504">
        <ele>243</ele>
        <time>2020-01-16T16:37:01+01:00</time>
      </trkpt>
      <trkpt lat="43.42854" lon="1.33518">
        <ele>242</ele>
        <time>2020-01-16T16:37:09+01:00</time>
      </trkpt>
      <trkpt lat="43.4285" lon="1.3353">
        <ele>242</ele>
        <time>2020-01-16T16:37:18+01:00</time>
      </trkpt>
      <trkpt lat="43.42845" lon="1.33541">
        <ele>241</ele>
        <time>2020-01-16T16:37:25+01:00</time>
      </trkpt>
      <trkpt lat="43.42841" lon="1.33553">
        <ele>240</ele>
        <time>2020-01-16T16:37:34+01:00</time>
      </trkpt>
      <trkpt lat="43.42836" lon="1.33572">
        <ele>239</ele>
        <time>2020-01-16T16:37:45+01:00</time>
      </trkpt>
      <trkpt lat="43.42829" lon="1.336">
        <ele>238</ele>
        <time>2020-01-16T16:38:03+01:00</time>
      </trkpt>
      <trkpt lat="43.42822" lon="1.33628">
        <ele>237</ele>
        <time>2020-01-16T16:38:20+01:00</time>
      </trkpt>
      <trkpt lat="43.42813" lon="1.33664">
        <ele>236</ele>
        <time>2020-01-16T16:38:42+01:00</time>
      </trkpt>
      <trkpt lat="43.42789" lon="1.33732">
        <ele>234</ele>
        <time>2020-01-16T16:39:26+01:00</time>
      </trkpt>
      <trkpt lat="43.42759" lon="1.3384">
        <ele>232</ele>
        <time>2020-01-16T16:40:33+01:00</time>
      </trkpt>
      <trkpt lat="43.42751" lon="1.33869">
        <ele>231</ele>
        <time>2020-01-16T16:40:52+01:00</time>
      </trkpt>
      <trkpt lat="43.42738" lon="1.339">
        <ele>230</ele>
        <time>2020-01-16T16:41:12+01:00</time>
      </trkpt>
      <trkpt lat="43.42696" lon="1.33937">
        <ele>232</ele>
        <time>2020-01-16T16:41:52+01:00</time>
      </trkpt>
      <trkpt lat="43.42659" lon="1.33978">
        <ele>234</ele>
        <time>2020-01-16T16:42:30+01:00</time>
      </trkpt>
      <trkpt lat="43.42651" lon="1.33984">
        <ele>235</ele>
        <time>2020-01-16T16:42:37+01:00</time>
      </trkpt>
      <trkpt lat="43.42643" lon="1.33991">
        <ele>236</ele>
        <time>2020-01-16T16:42:45+01:00</time>
      </trkpt>
      <trkpt lat="43.42635" lon="1.33997">
        <ele>236</ele>
        <time>2020-01-16T16:42:52+01:00</time>
      </trkpt>
      <trkpt lat="43.42627" lon="1.34004">
        <ele>236</ele>
        <time>2020-01-16T16:43:00+01:00</time>
      </trkpt>
      <trkpt lat="43.4262" lon="1.34011">
        <ele>237</ele>
        <time>2020-01-16T16:43:08+01:00</time>
      </trkpt>
      <trkpt lat="43.42612" lon="1.34018">
        <ele>237</ele>
        <time>2020-01-16T16:43:15+01:00</time>
      </trkpt>
      <trkpt lat="43.42603" lon="1.34024">
        <ele>237</ele>
        <time>2020-01-16T16:43:23+01:00</time>
      </trkpt>
      <trkpt lat="43.42596" lon="1.34035">
        <ele>237</ele>
        <time>2020-01-16T16:43:32+01:00</time>
      </trkpt>
      <trkpt lat="43.42587" lon="1.34042">
        <ele>237</ele>
        <time>2020-01-16T16:43:40+01:00</time>
      </trkpt>
      <trkpt lat="43.4258" lon="1.34049">
        <ele>237</ele>
        <time>2020-01-16T16:43:47+01:00</time>
      </trkpt>
      <trkpt lat="43.4257" lon="1.34052">
        <ele>238</ele>
        <time>2020-01-16T16:43:55+01:00</time>
      </trkpt>
      <trkpt lat="43.42562" lon="1.3406">
        <ele>238</ele>
        <time>2020-01-16T16:44:03+01:00</time>
      </trkpt>
      <trkpt lat="43.42555" lon="1.34069">
        <ele>238</ele>
        <time>2020-01-16T16:44:10+01:00</time>
      </trkpt>
      <trkpt lat="43.42548" lon="1.34078">
        <ele>238</ele>
        <time>2020-01-16T16:44:18+01:00</time>
      </trkpt>
      <trkpt lat="43.4254" lon="1.34086">
        <ele>238</ele>
        <time>2020-01-16T16:44:26+01:00</time>
      </trkpt>
      <trkpt lat="43.42532" lon="1.34094">
        <ele>238</ele>
        <time>2020-01-16T16:44:34+01:00</time>
      </trkpt>
      <trkpt lat="43.42524" lon="1.34101">
        <ele>238</ele>
        <time>2020-01-16T16:44:41+01:00</time>
      </trkpt>
      <trkpt lat="43.42516" lon="1.34107">
        <ele>238</ele>
        <time>2020-01-16T16:44:49+01:00</time>
      </trkpt>
      <trkpt lat="43.42508" lon="1.34115">
        <ele>239</ele>
        <time>2020-01-16T16:44:57+01:00</time>
      </trkpt>
      <trkpt lat="43.425" lon="1.34121">
        <ele>239</ele>
        <time>2020-01-16T16:45:04+01:00</time>
      </trkpt>
      <trkpt lat="43.42493" lon="1.34128">
        <ele>239</ele>
        <time>2020-01-16T16:45:12+01:00</time>
      </trkpt>
      <trkpt lat="43.42484" lon="1.34134">
        <ele>239</ele>
        <time>2020-01-16T16:45:20+01:00</time>
      </trkpt>
      <trkpt lat="43.42476" lon="1.34142">
        <ele>239</ele>
        <time>2020-01-16T16:45:28+01:00</time>
      </trkpt>
      <trkpt lat="43.42468" lon="1.34148">
        <ele>239</ele>
        <time>2020-01-16T16:45:35+01:00</time>
      </trkpt>
      <trkpt lat="43.42459" lon="1.34145">
        <ele>239</ele>
        <time>2020-01-16T16:45:43+01:00</time>
      </trkpt>
      <trkpt lat="43.42452" lon="1.34135">
        <ele>239</ele>
        <time>2020-01-16T16:45:51+01:00</time>
      </trkpt>
      <trkpt lat="43.42445" lon="1.34124">
        <ele>240</ele>
        <time>2020-01-16T16:46:00+01:00</time>
      </trkpt>
      <trkpt lat="43.42428" lon="1.34107">
        <ele>241</ele>
        <time>2020-01-16T16:46:16+01:00</time>
      </trkpt>
      <trkpt lat="43.42403" lon="1.3407">
        <ele>243</ele>
        <time>2020-01-16T16:46:46+01:00</time>
      </trkpt>
      <trkpt lat="43.42396" lon="1.34061">
        <ele>244</ele>
        <time>2020-01-16T16:46:54+01:00</time>
      </trkpt>
      <trkpt lat="43.42388" lon="1.34052">
        <ele>244</ele>
        <time>2020-01-16T16:47:02+01:00</time>
      </trkpt>
      <trkpt lat="43.42381" lon="1.34044">
        <ele>244</ele>
        <time>2020-01-16T16:47:09+01:00</time>
      </trkpt>
      <trkpt lat="43.42373" lon="1.34034">
        <ele>244</ele>
        <time>2020-01-16T16:47:18+01:00</time>
      </trkpt>
      <trkpt lat="43.42367" lon="1.34022">
        <ele>245</ele>
        <time>2020-01-16T16:47:26+01:00</time>
      </trkpt>
      <trkpt lat="43.4236" lon="1.34013">
        <ele>246</ele>
        <time>2020-01-16T16:47:34+01:00</time>
      </trkpt>
      <trkpt lat="43.42353" lon="1.34005">
        <ele>246</ele>
        <time>2020-01-16T16:47:42+01:00</time>
      </trkpt>
      <trkpt lat="43.42346" lon="1.33998">
        <ele>247</ele>
        <time>2020-01-16T16:47:49+01:00</time>
      </trkpt>
      <trkpt lat="43.42337" lon="1.33992">
        <ele>247</ele>
        <time>2020-01-16T16:47:57+01:00</time>
      </trkpt>
      <trkpt lat="43.4233" lon="1.33983">
        <ele>248</ele>
        <time>2020-01-16T16:48:05+01:00</time>
      </trkpt>
      <trkpt lat="43.42323" lon="1.33972">
        <ele>248</ele>
        <time>2020-01-16T16:48:13+01:00</time>
      </trkpt>
      <trkpt lat="43.42317" lon="1.33962">
        <ele>249</ele>
        <time>2020-01-16T16:48:21+01:00</time>
      </trkpt>
      <trkpt lat="43.42308" lon="1.33955">
        <ele>250</ele>
        <time>2020-01-16T16:48:29+01:00</time>
      </trkpt>
      <trkpt lat="43.423" lon="1.3395">
        <ele>250</ele>
        <time>2020-01-16T16:48:37+01:00</time>
      </trkpt>
      <trkpt lat="43.42278" lon="1.33923">
        <ele>250</ele>
        <time>2020-01-16T16:49:00+01:00</time>
      </trkpt>
      <trkpt lat="43.42256" lon="1.33899">
        <ele>251</ele>
        <time>2020-01-16T16:49:23+01:00</time>
      </trkpt>
      <trkpt lat="43.42249" lon="1.33889">
        <ele>251</ele>
        <time>2020-01-16T16:49:31+01:00</time>
      </trkpt>
      <trkpt lat="43.4224" lon="1.3388">
        <ele>251</ele>
        <time>2020-01-16T16:49:40+01:00</time>
      </trkpt>
      <trkpt lat="43.42233" lon="1.33873">
        <ele>251</ele>
        <time>2020-01-16T16:49:47+01:00</time>
      </trkpt>
      <trkpt lat="43.42225" lon="1.33865">
        <ele>251</ele>
        <time>2020-01-16T16:49:55+01:00</time>
      </trkpt>
      <trkpt lat="43.42207" lon="1.33844">
        <ele>250</ele>
        <time>2020-01-16T16:50:14+01:00</time>
      </trkpt>
      <trkpt lat="43.42191" lon="1.33826">
        <ele>250</ele>
        <time>2020-01-16T16:50:31+01:00</time>
      </trkpt>
      <trkpt lat="43.42151" lon="1.33752">
        <ele>248</ele>
        <time>2020-01-16T16:51:24+01:00</time>
      </trkpt>
      <trkpt lat="43.42143" lon="1.33764">
        <ele>248</ele>
        <time>2020-01-16T16:51:34+01:00</time>
      </trkpt>
      <trkpt lat="43.42145" lon="1.33786">
        <ele>247</ele>
        <time>2020-01-16T16:51:47+01:00</time>
      </trkpt>
      <trkpt lat="43.42146" lon="1.33836">
        <ele>246</ele>
        <time>2020-01-16T16:52:16+01:00</time>
      </trkpt>
      <trkpt lat="43.4215" lon="1.33873">
        <ele>245</ele>
        <time>2020-01-16T16:52:38+01:00</time>
      </trkpt>
      <trkpt lat="43.42154" lon="1.33904">
        <ele>245</ele>
        <time>2020-01-16T16:52:56+01:00</time>
      </trkpt>
      <trkpt lat="43.42159" lon="1.33951">
        <ele>245</ele>
        <time>2020-01-16T16:53:24+01:00</time>
      </trkpt>
      <trkpt lat="43.4215" lon="1.34055">
        <ele>242</ele>
        <time>2020-01-16T16:54:25+01:00</time>
      </trkpt>
      <trkpt lat="43.42148" lon="1.34084">
        <ele>241</ele>
        <time>2020-01-16T16:54:42+01:00</time>
      </trkpt>
      <trkpt lat="43.42146" lon="1.34115">
        <ele>240</ele>
        <time>2020-01-16T16:55:00+01:00</time>
      </trkpt>
      <trkpt lat="43.42141" lon="1.34172">
        <ele>238</ele>
        <time>2020-01-16T16:55:34+01:00</time>
      </trkpt>
      <trkpt lat="43.42146" lon="1.34246">
        <ele>237</ele>
        <time>2020-01-16T16:56:17+01:00</time>
      </trkpt>
      <trkpt lat="43.42154" lon="1.34312">
        <ele>234</ele>
        <time>2020-01-16T16:56:56+01:00</time>
      </trkpt>
      <trkpt lat="43.42149" lon="1.34345">
        <ele>232</ele>
        <time>2020-01-16T16:57:16+01:00</time>
      </trkpt>
      <trkpt lat="43.42145" lon="1.34361">
        <ele>231</ele>
        <time>2020-01-16T16:57:26+01:00</time>
      </trkpt>
      <trkpt lat="43.4214" lon="1.34374">
        <ele>230</ele>
        <time>2020-01-16T16:57:34+01:00</time>
      </trkpt>
      <trkpt lat="43.42137" lon="1.34387">
        <ele>229</ele>
        <time>2020-01-16T16:57:43+01:00</time>
      </trkpt>
      <trkpt lat="43.42133" lon="1.344">
        <ele>228</ele>
        <time>2020-01-16T16:57:51+01:00</time>
      </trkpt>
      <trkpt lat="43.4213" lon="1.34412">
        <ele>228</ele>
        <time>2020-01-16T16:57:58+01:00</time>
      </trkpt>
      <trkpt lat="43.42127" lon="1.34426">
        <ele>227</ele>
        <time>2020-01-16T16:58:07+01:00</time>
      </trkpt>
      <trkpt lat="43.42124" lon="1.34438">
        <ele>226</ele>
        <time>2020-01-16T16:58:15+01:00</time>
      </trkpt>
      <trkpt lat="43.42121" lon="1.34451">
        <ele>225</ele>
        <time>2020-01-16T16:58:23+01:00</time>
      </trkpt>
      <trkpt lat="43.42117" lon="1.34463">
        <ele>225</ele>
        <time>2020-01-16T16:58:31+01:00</time>
      </trkpt>
      <trkpt lat="43.42107" lon="1.3449">
        <ele>223</ele>
        <time>2020-01-16T16:58:48+01:00</time>
      </trkpt>
      <trkpt lat="43.42102" lon="1.34507">
        <ele>222</ele>
        <time>2020-01-16T16:58:59+01:00</time>
      </trkpt>
      <trkpt lat="43.42093" lon="1.34533">
        <ele>220</ele>
        <time>2020-01-16T16:59:15+01:00</time>
      </trkpt>
      <trkpt lat="43.42085" lon="1.34555">
        <ele>218</ele>
        <time>2020-01-16T16:59:30+01:00</time>
      </trkpt>
      <trkpt lat="43.4207" lon="1.34605">
        <ele>216</ele>
        <time>2020-01-16T17:00:02+01:00</time>
      </trkpt>
      <trkpt lat="43.4206" lon="1.34639">
        <ele>213</ele>
        <time>2020-01-16T17:00:23+01:00</time>
      </trkpt>
      <trkpt lat="43.42056" lon="1.34651">
        <ele>213</ele>
        <time>2020-01-16T17:00:30+01:00</time>
      </trkpt>
      <trkpt lat="43.42048" lon="1.34674">
        <ele>211</ele>
        <time>2020-01-16T17:00:46+01:00</time>
      </trkpt>
      <trkpt lat="43.42063" lon="1.34712">
        <ele>210</ele>
        <time>2020-01-16T17:01:11+01:00</time>
      </trkpt>
      <trkpt lat="43.42071" lon="1.34744">
        <ele>209</ele>
        <time>2020-01-16T17:01:31+01:00</time>
      </trkpt>
      <trkpt lat="43.42067" lon="1.34781">
        <ele>208</ele>
        <time>2020-01-16T17:01:53+01:00</time>
      </trkpt>
      <trkpt lat="43.42062" lon="1.34804">
        <ele>208</ele>
        <time>2020-01-16T17:02:06+01:00</time>
      </trkpt>
      <trkpt lat="43.42058" lon="1.34823">
        <ele>207</ele>
        <time>2020-01-16T17:02:18+01:00</time>
      </trkpt>
      <trkpt lat="43.42051" lon="1.34865">
        <ele>207</ele>
        <time>2020-01-16T17:02:43+01:00</time>
      </trkpt>
      <trkpt lat="43.42021" lon="1.34887">
        <ele>208</ele>
        <time>2020-01-16T17:03:10+01:00</time>
      </trkpt>
      <trkpt lat="43.42011" lon="1.34895">
        <ele>209</ele>
        <time>2020-01-16T17:03:20+01:00</time>
      </trkpt>
      <trkpt lat="43.42007" lon="1.34907">
        <ele>209</ele>
        <time>2020-01-16T17:03:27+01:00</time>
      </trkpt>
      <trkpt lat="43.41999" lon="1.34916">
        <ele>210</ele>
        <time>2020-01-16T17:03:36+01:00</time>
      </trkpt>
      <trkpt lat="43.41976" lon="1.34945">
        <ele>211</ele>
        <time>2020-01-16T17:04:00+01:00</time>
      </trkpt>
      <trkpt lat="43.4195" lon="1.34979">
        <ele>212</ele>
        <time>2020-01-16T17:04:30+01:00</time>
      </trkpt>
      <trkpt lat="43.41943" lon="1.34988">
        <ele>211</ele>
        <time>2020-01-16T17:04:37+01:00</time>
      </trkpt>
      <trkpt lat="43.41936" lon="1.34999">
        <ele>212</ele>
        <time>2020-01-16T17:04:45+01:00</time>
      </trkpt>
      <trkpt lat="43.41927" lon="1.35006">
        <ele>212</ele>
        <time>2020-01-16T17:04:54+01:00</time>
      </trkpt>
      <trkpt lat="43.41919" lon="1.35013">
        <ele>212</ele>
        <time>2020-01-16T17:05:02+01:00</time>
      </trkpt>
      <trkpt lat="43.41912" lon="1.35021">
        <ele>212</ele>
        <time>2020-01-16T17:05:10+01:00</time>
      </trkpt>
      <trkpt lat="43.41906" lon="1.35032">
        <ele>212</ele>
        <time>2020-01-16T17:05:18+01:00</time>
      </trkpt>
      <trkpt lat="43.41898" lon="1.3504">
        <ele>212</ele>
        <time>2020-01-16T17:05:26+01:00</time>
      </trkpt>
      <trkpt lat="43.41891" lon="1.35049">
        <ele>212</ele>
        <time>2020-01-16T17:05:34+01:00</time>
      </trkpt>
      <trkpt lat="43.41887" lon="1.3506">
        <ele>212</ele>
        <time>2020-01-16T17:05:42+01:00</time>
      </trkpt>
      <trkpt lat="43.41879" lon="1.35068">
        <ele>212</ele>
        <time>2020-01-16T17:05:50+01:00</time>
      </trkpt>
      <trkpt lat="43.41874" lon="1.35079">
        <ele>212</ele>
        <time>2020-01-16T17:05:58+01:00</time>
      </trkpt>
      <trkpt lat="43.41867" lon="1.35088">
        <ele>212</ele>
        <time>2020-01-16T17:06:05+01:00</time>
      </trkpt>
      <trkpt lat="43.4186" lon="1.35096">
        <ele>213</ele>
        <time>2020-01-16T17:06:13+01:00</time>
      </trkpt>
      <trkpt lat="43.41854" lon="1.35105">
        <ele>212</ele>
        <time>2020-01-16T17:06:20+01:00</time>
      </trkpt>
      <trkpt lat="43.41846" lon="1.35115">
        <ele>212</ele>
        <time>2020-01-16T17:06:28+01:00</time>
      </trkpt>
      <trkpt lat="43.4184" lon="1.35126">
        <ele>213</ele>
        <time>2020-01-16T17:06:36+01:00</time>
      </trkpt>
      <trkpt lat="43.41835" lon="1.35139">
        <ele>213</ele>
        <time>2020-01-16T17:06:45+01:00</time>
      </trkpt>
      <trkpt lat="43.41832" lon="1.35151">
        <ele>213</ele>
        <time>2020-01-16T17:06:52+01:00</time>
      </trkpt>
      <trkpt lat="43.41833" lon="1.35164">
        <ele>212</ele>
        <time>2020-01-16T17:07:00+01:00</time>
      </trkpt>
      <trkpt lat="43.4184" lon="1.35181">
        <ele>212</ele>
        <time>2020-01-16T17:07:11+01:00</time>
      </trkpt>
      <trkpt lat="43.41895" lon="1.35256">
        <ele>206</ele>
        <time>2020-01-16T17:08:13+01:00</time>
      </trkpt>
      <trkpt lat="43.41899" lon="1.35276">
        <ele>205</ele>
        <time>2020-01-16T17:08:26+01:00</time>
      </trkpt>
      <trkpt lat="43.41889" lon="1.35273">
        <ele>206</ele>
        <time>2020-01-16T17:08:34+01:00</time>
      </trkpt>
    </trkseg>
  </trk>
</gpx>